617 Open Spring 2018 Courses

CRNCourseUnitsDatesClass TimeClass DaysSeats Available 
1225 ACCT 101 : PRACTICAL ACCOUNTING 402/28/2018 - 05/09/2018 9:00 AM - 10:50 AM W 27 Enroll Now
3551 ACCT 101 : PRACTICAL ACCOUNTING 402/05/2018 - 05/25/2018 1:00 AM - 1:00 AM ONL 27 Enroll Now
1229 ACCT 145 : INDIVIDUAL INCOME TAX 401/22/2018 - 05/25/2018 1:00 AM - 1:00 AM ONL 2 Enroll Now
2367 ACCT 146 : TAXATION OF BUSINESS ENTITIES 401/22/2018 - 05/25/2018 1:00 AM - 1:00 AM ONL 4 Enroll Now
1231 ACCT 148 : COMPUTER ACCOUNTING 301/22/2018 - 05/25/2018 1:00 AM - 1:00 AM ONL 1 Enroll Now
2487 ACCT 148 : COMPUTER ACCOUNTING 301/22/2018 - 05/25/2018 1:00 AM - 1:00 AM ONL 2 Enroll Now
3029 ACCT 158 : BUSINESS MATH 302/26/2018 - 05/12/2018 1:00 AM - 1:00 AM ONL 29 Enroll Now
1233 ACCT 201 : FINANCIAL ACCOUNTING 401/22/2018 - 05/25/2018 7:00 AM - 8:50 AM W 6 Enroll Now
1236 ACCT 201 : FINANCIAL ACCOUNTING 401/22/2018 - 05/25/2018 1:30 PM - 3:20 PM MW 1 Enroll Now
1237 ACCT 201 : FINANCIAL ACCOUNTING 401/22/2018 - 05/25/2018 6:00 PM - 7:50 PM T 9 Enroll Now
1238 ACCT 201 : FINANCIAL ACCOUNTING 401/22/2018 - 05/25/2018 9:00 AM - 10:50 AM TTH 9 Enroll Now
1242 ACCT 202 : MANAGERIAL ACCOUNTING 401/22/2018 - 05/25/2018 11:00 AM - 12:50 PM MW 10 Enroll Now
1244 ACCT 202 : MANAGERIAL ACCOUNTING 401/22/2018 - 05/25/2018 11:00 AM - 12:50 PM TTH 15 Enroll Now
1870 ACE 149 : INTRO ACAD WRIT MULTILING BKG 401/22/2018 - 05/25/2018 8:30 AM - 10:20 AM T 19 Enroll Now
2728 ACE 149 : INTRO ACAD WRIT MULTILING BKG 402/05/2018 - 05/23/2018 6:00 PM - 9:05 PM M 22 Enroll Now
3565 ACE 149 : INTRO ACAD WRIT MULTILING BKG 402/06/2018 - 05/24/2018 12:00 PM - 2:20 PM T 24 Enroll Now
1872 ACE 150 : INTRO COLL COMP MULTILING BKG 402/05/2018 - 05/23/2018 1:30 PM - 3:20 PM M 23 Enroll Now
1874 ACE 150 : INTRO COLL COMP MULTILING BKG 401/22/2018 - 05/25/2018 8:30 AM - 10:20 AM T 21 Enroll Now
2720 ACE 150 : INTRO COLL COMP MULTILING BKG 402/05/2018 - 05/23/2018 6:00 PM - 9:05 PM M 22 Enroll Now
2722 ACE 150 : INTRO COLL COMP MULTILING BKG 401/22/2018 - 05/25/2018 12:00 PM - 2:20 PM T 24 Enroll Now
1336 ADM 100 : INTRO TO ADMIN JUSTICE 301/22/2018 - 05/25/2018 6:00 PM - 8:50 PM W 15 Enroll Now
2710 ADM 100 : INTRO TO ADMIN JUSTICE 302/06/2018 - 05/24/2018 8:00 AM - 9:35 AM TTH 21 Enroll Now
2751 ADM 100 : INTRO TO ADMIN JUSTICE 302/09/2018 - 05/25/2018 8:30 AM - 12:20 PM F 20 Enroll Now
1862 ADM 240 : WRITTEN/ORAL COMM - ADM 301/22/2018 - 05/25/2018 9:00 AM - 10:15 AM MW 1 Enroll Now
2365 ADM 250 : POLICE FIELD OPERATIONS 301/22/2018 - 05/25/2018 6:00 PM - 8:50 PM TH 21 Enroll Now
1396 ANTH 101 : BIOLOGICAL ANTHRO 301/22/2018 - 05/25/2018 7:30 AM - 8:45 AM MW 5 Enroll Now
2752 ANTH 101 : BIOLOGICAL ANTHRO 302/09/2018 - 05/25/2018 8:00 AM - 11:50 AM F 21 Enroll Now
1403 ANTH 102 : CULTURAL ANTHROPOLOGY 301/22/2018 - 05/25/2018 6:00 PM - 8:50 PM T 7 Enroll Now
1404 ANTH 102 : CULTURAL ANTHROPOLOGY 301/22/2018 - 05/25/2018 3:00 PM - 4:15 PM TTH 8 Enroll Now
2125 ANTH 102 : CULTURAL ANTHROPOLOGY 301/22/2018 - 05/25/2018 10:30 AM - 11:45 AM MW 2 Enroll Now
2289 ANTH 104 : NATIVE AMERICAN CULTURES 301/22/2018 - 05/25/2018 10:30 AM - 11:45 AM TTH 17 Enroll Now
2288 ANTH 190 : PRIMATE BEHAVIOR & ECOLOGY 301/22/2018 - 05/25/2018 9:00 AM - 10:15 AM TTH 7 Enroll Now
1424 ART 100 : DRAWING AND COMPOSITION 301/22/2018 - 05/25/2018 6:30 PM - 7:15 PM MW 7 Enroll Now
1426 ART 100 : DRAWING AND COMPOSITION 301/22/2018 - 05/25/2018 6:00 PM - 6:45 PM TTH 7 Enroll Now
1428 ART 100 : DRAWING AND COMPOSITION 301/22/2018 - 05/25/2018 2:20 PM - 3:05 PM MW 12 Enroll Now
1430 ART 100 : DRAWING AND COMPOSITION 301/22/2018 - 05/25/2018 11:00 AM - 11:45 AM TTH 6 Enroll Now
1432 ART 100 : DRAWING AND COMPOSITION 301/22/2018 - 05/25/2018 9:00 AM - 9:45 AM MW 15 Enroll Now
1434 ART 101 : DESIGN AND COLOR 301/22/2018 - 05/25/2018 3:00 PM - 3:45 PM MW 3 Enroll Now
1438 ART 101 : DESIGN AND COLOR 301/22/2018 - 05/25/2018 11:00 AM - 11:45 AM TTH 1 Enroll Now
2128 ART 101 : DESIGN AND COLOR 301/22/2018 - 05/25/2018 11:10 AM - 11:55 AM MW 17 Enroll Now
1442 ART 102 : DRAWING AND COMPOSITION II 301/22/2018 - 05/25/2018 11:10 AM - 11:55 AM MW 5 Enroll Now
1446 ART 103 : 3D DESIGN 301/22/2018 - 05/25/2018 10:00 AM - 10:45 AM TTH 9 Enroll Now
3448 ART 104 : ARTISTS & DESIGNERS NOW 301/22/2018 - 05/25/2018 6:30 PM - 9:30 PM M 12 Enroll Now
1448 ART 157 : ART ORIENTATION 301/22/2018 - 05/25/2018 9:30 AM - 10:45 AM TTH 8 Enroll Now
1449 ART 157 : ART ORIENTATION 301/22/2018 - 05/25/2018 7:30 AM - 8:45 AM MW 22 Enroll Now
1452 ART 157 : ART ORIENTATION 301/22/2018 - 05/25/2018 9:00 AM - 10:15 AM MW 21 Enroll Now
1454 ART 157 : ART ORIENTATION 301/22/2018 - 05/25/2018 1:00 AM - 1:00 AM ONL 11 Enroll Now
3548 ART 157 : ART ORIENTATION 302/05/2018 - 05/21/2018 2:00 PM - 3:35 PM MW 35 Enroll Now
1455 ART 158 : TRADITIONAL ARTS 301/22/2018 - 05/25/2018 9:00 AM - 10:15 AM MW 3 Enroll Now
3172 ART 200 : DRAWING III 301/22/2018 - 05/25/2018 11:10 AM - 11:55 AM MW 26 Enroll Now
3155 ART 201 : OBJECTS/IDEAS CONTEMP ART 302/06/2018 - 05/22/2018 10:30 AM - 11:30 AM TTH 20 Enroll Now
2662 ART 202 : PAINTING: ACRYLIC 302/06/2018 - 05/22/2018 2:00 PM - 3:00 PM TTH 10 Enroll Now
1456 ART 203 : LIFE DRAWING I 301/22/2018 - 05/25/2018 3:00 PM - 3:45 PM TTH 2 Enroll Now
2664 ART 203 : LIFE DRAWING I 302/05/2018 - 05/23/2018 6:00 PM - 7:00 PM MW 14 Enroll Now
1460 ART 205 : PAINTING: WATERCOLOR 301/22/2018 - 05/25/2018 9:00 AM - 10:30 AM F 9 Enroll Now
2761 ART 205 : PAINTING: WATERCOLOR 302/09/2018 - 05/25/2018 9:00 AM - 10:35 AM F 12 Enroll Now
1466 ART 207 : BEGINNING PHOTOGRAPHY 301/22/2018 - 05/25/2018 3:15 PM - 4:00 PM MW 15 Enroll Now
1468 ART 208 : ADV PHOTOGRAPHY 301/22/2018 - 05/25/2018 9:00 AM - 9:45 AM TTH 14 Enroll Now
2688 ART 210 : PRINTMAKING 301/22/2018 - 05/25/2018 2:00 PM - 2:45 PM TTH 6 Enroll Now
2668 ART 212 : PAINTING II: ACRYLICS 302/06/2018 - 05/22/2018 2:00 PM - 3:00 PM TTH 23 Enroll Now
2247 ART 213 : LIFE DRAWING II 301/22/2018 - 05/25/2018 3:00 PM - 3:45 PM TTH 28 Enroll Now
2670 ART 213 : LIFE DRAWING II 302/05/2018 - 05/23/2018 6:00 PM - 7:00 PM MW 21 Enroll Now
2249 ART 214 : PAINTING II: OILS 301/22/2018 - 05/25/2018 3:00 PM - 3:45 PM MW 19 Enroll Now
2251 ART 215 : PAINTING II: WATERCOLOR 301/22/2018 - 05/25/2018 9:00 AM - 10:30 AM F 27 Enroll Now
2763 ART 215 : PAINTING II: WATERCOLOR 302/09/2018 - 05/25/2018 9:00 AM - 10:35 AM F 22 Enroll Now
2701 ART 216 : SCULPTURE 301/22/2018 - 05/25/2018 10:00 AM - 10:45 AM TTH 22 Enroll Now
2697 ART 218 : PRINTMAKING II 301/22/2018 - 05/25/2018 2:00 PM - 2:45 PM TTH 25 Enroll Now
3162 ART 221 : PRINTMAKING III 301/22/2018 - 05/25/2018 2:00 PM - 2:45 PM TTH 29 Enroll Now
2657 ART 223 : WOODWORKING & FURN DESIGN I 302/05/2018 - 05/23/2018 6:00 PM - 7:00 PM MW 9 Enroll Now
2672 ART 224 : WOODWORKING & FURN DESIGN II 302/05/2018 - 05/23/2018 6:00 PM - 7:00 PM MW 27 Enroll Now
1474 ART 225 : CERAMICS I 301/22/2018 - 05/25/2018 2:00 PM - 2:45 PM TTH 8 Enroll Now
2253 ART 226 : CERAMICS II 301/22/2018 - 05/25/2018 1:30 PM - 2:15 PM MW 12 Enroll Now
2255 ART 226 : CERAMICS II 301/22/2018 - 05/25/2018 2:00 PM - 2:45 PM TTH 24 Enroll Now
3178 ART 227 : CERAMICS III 301/22/2018 - 05/25/2018 1:30 PM - 2:15 PM MW 23 Enroll Now
3503 ART 227 : CERAMICS III 301/22/2018 - 05/25/2018 2:00 PM - 2:45 PM TTH 29 Enroll Now
3168 ART 228 : CERAMICS IV 301/22/2018 - 05/25/2018 2:00 PM - 2:45 PM TTH 29 Enroll Now
3180 ART 228 : CERAMICS IV 301/22/2018 - 05/25/2018 1:30 PM - 2:15 PM MW 29 Enroll Now
3164 ART 229 : WOODWORKING & FURN DESIGN III 302/05/2018 - 05/23/2018 6:00 PM - 7:00 PM MW 25 Enroll Now
3174 ART 234 : KINETIC ART 301/22/2018 - 05/25/2018 9:30 AM - 10:15 AM MW 23 Enroll Now
3166 ART 239 : WOODWORKING & FURN DESIGN IV 302/05/2018 - 05/23/2018 6:00 PM - 7:00 PM MW 29 Enroll Now
2674 ART 241 : PAINTING: ACRYLIC III 302/06/2018 - 05/22/2018 2:00 PM - 3:00 PM TTH 24 Enroll Now
2467 ART 242 : PAINTING: WATERCOLOR III 301/22/2018 - 05/25/2018 9:00 AM - 10:30 AM F 26 Enroll Now
2765 ART 242 : PAINTING: WATERCOLOR III 302/09/2018 - 05/25/2018 9:00 AM - 10:35 AM F 20 Enroll Now
1887 ART 244 : DIGITAL MEDIA FOR VISUAL ARTST 301/22/2018 - 05/25/2018 6:30 PM - 7:30 PM TTH 4 Enroll Now
1476 ART 251 : DIGITAL PHOTOGRAPHY 301/22/2018 - 05/25/2018 2:10 PM - 2:55 PM TTH 5 Enroll Now
1478 ART 251 : DIGITAL PHOTOGRAPHY 301/22/2018 - 05/25/2018 6:00 PM - 6:45 PM TTH 4 Enroll Now
1484 ART 253 : APPLIED DIGITAL PHOTOGRAPHY 301/22/2018 - 05/25/2018 6:30 PM - 7:30 PM MW 8 Enroll Now
1486 ART 254 : THE PHOTOGRAPHIC IMAGE 301/22/2018 - 05/25/2018 6:30 PM - 9:20 PM W 23 Enroll Now
1487 ART 258 : ANCIENT/GOTHIC ART 301/22/2018 - 05/25/2018 8:00 AM - 9:15 AM TTH 20 Enroll Now
1489 ART 259 : RENAISSANCE/MODERN ART 301/22/2018 - 05/25/2018 10:30 AM - 11:45 AM MW 22 Enroll Now
1490 ART 259 : RENAISSANCE/MODERN ART 301/22/2018 - 05/25/2018 12:30 PM - 1:45 PM TTH 2 Enroll Now
2274 ART 259 : RENAISSANCE/MODERN ART 301/22/2018 - 05/25/2018 1:00 AM - 1:00 AM ONL 20 Enroll Now
1492 ART 260 : HISTORY OF MODERN ART 301/22/2018 - 05/25/2018 1:30 PM - 2:45 PM TTH 5 Enroll Now
3080 ART 260H : HISTORY OF MODERN ART (HONORS) 301/22/2018 - 05/25/2018 10:30 AM - 11:45 AM MW 14 Enroll Now
3480 ART 263 : LIFE DRAWING III 301/22/2018 - 05/25/2018 3:00 PM - 3:45 PM TTH 30 Enroll Now
3482 ART 263 : LIFE DRAWING III 302/05/2018 - 05/23/2018 6:00 PM - 7:00 PM MW 25 Enroll Now
3157 ART 264 : PAINTING III: OILS 301/22/2018 - 05/25/2018 3:00 PM - 3:45 PM MW 26 Enroll Now
3449 ART 290 : LANDMARKS OF ART 301/22/2018 - 05/25/2018 1:00 AM - 1:00 AM ARR 7 Enroll Now
2651 ART 295 : VISUAL ART/PROF PRACTICE 302/05/2018 - 05/21/2018 11:00 AM - 12:00 PM MW 17 Enroll Now
1149 ASTR 101L : DESCRIPTIVE ASTRONOMY LAB 101/22/2018 - 05/25/2018 7:00 PM - 9:50 PM T 2 Enroll Now
1150 ASTR 101L : DESCRIPTIVE ASTRONOMY LAB 101/22/2018 - 05/25/2018 7:00 PM - 9:50 PM W 1 Enroll Now
2901 ATHL 118 : BASKETBALL TECHNIQUES 103/26/2018 - 05/23/2018 3:00 PM - 4:20 PM MW 28 Enroll Now
2902 ATHL 118 : BASKETBALL TECHNIQUES 103/26/2018 - 05/23/2018 6:15 PM - 7:35 PM MW 32 Enroll Now
2904 ATHL 134 : SOCCER 102/20/2018 - 05/17/2018 1:00 PM - 2:50 PM TTH 32 Enroll Now
2737 AUTO 102 : PREVENTIVE MAINT/ENGINE PERF 402/06/2018 - 05/22/2018 1:00 AM - 1:00 AM ONL 10 Enroll Now
2492 AUTO 105 : AUTO RECONDITIONING AND DETAIL 401/22/2018 - 05/25/2018 8:00 AM - 9:30 AM TTH 7 Enroll Now
1377 AUTO 130 : BASIC ENGINE PERFORMANCE 201/22/2018 - 05/25/2018 1:00 PM - 2:30 PM M 6 Enroll Now
1379 AUTO 130 : BASIC ENGINE PERFORMANCE 201/22/2018 - 05/25/2018 6:00 PM - 7:30 PM W 5 Enroll Now
1381 AUTO 135 : AUTO ELECTRONIC FUNDAMENTALS 401/22/2018 - 05/25/2018 11:10 AM - 12:40 PM MW 3 Enroll Now
2278 AUTO 135 : AUTO ELECTRONIC FUNDAMENTALS 401/22/2018 - 05/25/2018 6:00 PM - 7:30 PM TTH 5 Enroll Now
1385 AUTO 141 : AUTO ENGINE PERFORMANCE 401/22/2018 - 05/25/2018 8:00 AM - 9:30 AM MW 4 Enroll Now
1387 AUTO 141 : AUTO ENGINE PERFORMANCE 401/22/2018 - 05/25/2018 6:00 PM - 7:30 PM TTH 5 Enroll Now
1389 AUTO 156 : AUTO TRANSMISSIONS/TRANSAXLES 401/22/2018 - 05/25/2018 6:00 PM - 7:30 PM MW 2 Enroll Now
2126 AUTO 200 : HYBRID & ALTERNATIVE FUEL 401/22/2018 - 05/25/2018 6:00 PM - 7:45 PM MW 6 Enroll Now
2918 AUTO 225 : SMOG CHECK TRAINING - LEVEL 2 204/10/2018 - 05/17/2018 5:30 PM - 7:30 PM TTH 14 Enroll Now
2649 BIO 180 : BIOSTATISTICS 401/22/2018 - 05/25/2018 1:30 PM - 2:45 PM MW 10 Enroll Now
2724 BIO 180 : BIOSTATISTICS 402/06/2018 - 05/24/2018 4:45 PM - 6:15 PM TTH 15 Enroll Now
2925 BIO 190 : SURVEY OF MUSCULOSKELETAL SYST 102/08/2018 - 04/05/2018 6:00 PM - 8:05 PM TH 22 Enroll Now
3108 BIO 204 : BIOCHEM, CELL, GENE, MOLECULAR 401/22/2018 - 05/25/2018 12:00 PM - 1:15 PM TTH 2 Enroll Now
1980 BIO 230 : INTRO TO MICROBIOLOGY 501/22/2018 - 05/25/2018 9:00 AM - 10:15 AM TTH 1 Enroll Now
1990 BIO 230 : INTRO TO MICROBIOLOGY 501/22/2018 - 05/25/2018 10:30 AM - 11:45 AM MW 5 Enroll Now
2637 BOT 100 : BEGINNING KEYBOARDING 101/22/2018 - 03/17/2018 1:00 AM - 1:00 AM ONL 1 Enroll Now
2638 BOT 100 : BEGINNING KEYBOARDING 101/22/2018 - 03/17/2018 1:00 AM - 1:00 AM ONL 23 Enroll Now
3011 BOT 100 : BEGINNING KEYBOARDING 103/26/2018 - 05/19/2018 1:00 AM - 1:00 AM ONL 36 Enroll Now
3006 BOT 101 : ADVANCED KEYBOARDING 103/26/2018 - 05/19/2018 1:00 AM - 1:00 AM ONL 3 Enroll Now
3007 BOT 102 : 10-KEY 101/22/2018 - 03/17/2018 1:00 AM - 1:00 AM ONL 13 Enroll Now
2639 BOT 113 : BASIC OFFICE SKILLS 101/22/2018 - 03/17/2018 1:00 AM - 1:00 AM ONL 3 Enroll Now
3008 BOT 117 : MANAGEMENT OFFICE SKILLS 101/22/2018 - 03/17/2018 1:00 AM - 1:00 AM ONL 6 Enroll Now
3517 BTEC 110 : BASIC TECHNIQUES IN BTEC 401/22/2018 - 05/25/2018 1:25 PM - 2:25 PM MW 9 Enroll Now
3097 BTEC 120 : BUS/REGULATORY PRACT IN BTEC 302/05/2018 - 05/25/2018 1:00 AM - 1:00 AM ONL 3 Enroll Now
2647 BTEC 180 : BIOSTATISTICS 401/22/2018 - 05/25/2018 1:30 PM - 2:45 PM MW 20 Enroll Now
2726 BTEC 180 : BIOSTATISTICS 402/06/2018 - 05/24/2018 4:45 PM - 6:15 PM TTH 15 Enroll Now
1122 BUS 120 : INTRO TO BUSINESS 301/22/2018 - 05/25/2018 6:00 PM - 8:50 PM W 9 Enroll Now
3116 BUS 120 : INTRO TO BUSINESS 301/22/2018 - 05/25/2018 10:30 AM - 11:45 AM MW 14 Enroll Now
3560 BUS 120 : INTRO TO BUSINESS 303/26/2018 - 05/19/2018 1:00 AM - 1:00 AM ONL 30 Enroll Now
1124 BUS 130 : ENTREP & SMALL BUSINESS MGMT 301/22/2018 - 05/25/2018 6:00 PM - 9:00 PM M 11 Enroll Now
1125 BUS 130 : ENTREP & SMALL BUSINESS MGMT 301/22/2018 - 05/25/2018 3:00 PM - 4:15 PM TTH 11 Enroll Now
2978 BUS 135 : PERSONAL SELLING 303/27/2018 - 05/17/2018 4:30 PM - 5:45 PM TTH 9 Enroll Now
1132 BUS 140 : LEGAL ENVIRONMENT OF BUS 301/22/2018 - 05/25/2018 6:00 PM - 8:50 PM T 10 Enroll Now
1135 BUS 140 : LEGAL ENVIRONMENT OF BUS 301/22/2018 - 05/25/2018 1:30 PM - 2:45 PM MW 6 Enroll Now
2283 BUS 204 : BUSINESS STATISTICS 301/22/2018 - 05/25/2018 6:00 PM - 9:00 PM M 16 Enroll Now
2285 BUS 204 : BUSINESS STATISTICS 301/22/2018 - 05/25/2018 1:30 PM - 2:45 PM MW 6 Enroll Now
2286 BUS 204 : BUSINESS STATISTICS 301/22/2018 - 05/25/2018 10:30 AM - 11:45 AM TTH 17 Enroll Now
1140 BUS 290 : BUSINESS COMMUNICATION 301/22/2018 - 05/25/2018 7:30 AM - 8:45 AM TTH 6 Enroll Now
1653 CHEM 100 : INTRO TO CHEMISTRY 401/22/2018 - 05/25/2018 8:00 AM - 11:00 AM F 1 Enroll Now
1655 CHEM 102 : INTRO TO ORGANIC AND BIO CHEM 401/22/2018 - 05/25/2018 5:30 PM - 6:45 PM MW 9 Enroll Now
1667 CHEM 110 : GENERAL CHEMISTRY 501/22/2018 - 05/25/2018 5:30 PM - 6:45 PM MW 1 Enroll Now
1669 CHEM 110 : GENERAL CHEMISTRY 501/22/2018 - 05/25/2018 7:20 AM - 8:35 AM MW 6 Enroll Now
2088 CHEM 110 : GENERAL CHEMISTRY 501/22/2018 - 05/25/2018 8:00 AM - 9:15 AM FS 12 Enroll Now
2158 CHEM 110 : GENERAL CHEMISTRY 501/22/2018 - 05/25/2018 5:30 PM - 6:45 PM TTH 10 Enroll Now
3185 CHEM 110 : GENERAL CHEMISTRY 501/22/2018 - 05/25/2018 1:30 PM - 2:45 PM MW 9 Enroll Now
3183 CHEM 111H : GENERAL CHEMISTRY (HONORS) 501/22/2018 - 05/25/2018 11:15 AM - 12:30 PM TTH 4 Enroll Now
1681 CHEM 211 : ORGANIC CHEMSTRY II 501/22/2018 - 05/25/2018 10:30 AM - 11:45 AM MW 2 Enroll Now
2856 CHLD 109 : CHILD BEHAVIOR & GUIDANCE 301/22/2018 - 05/25/2018 6:30 PM - 9:20 PM T 8 Enroll Now
2889 CHLD 111 : PROGRAMS FOR INFANTS/TODDLERS 301/22/2018 - 05/25/2018 6:30 PM - 9:20 PM W 12 Enroll Now
1515 CHLD 113 : CHLD/ADOLESC GROWTH 301/22/2018 - 05/25/2018 10:30 AM - 11:45 AM TTH 22 Enroll Now
2890 CHLD 130 : SCI & MATH FOR YOUNG CHILDREN 303/31/2018 - 05/19/2018 9:00 AM - 11:50 AM S 15 Enroll Now
1860 CHLD 200 : OBSERV & ASSESS IN EARLY CHLD 302/09/2018 - 05/25/2018 8:30 AM - 12:20 PM F 21 Enroll Now
1519 CHLD 210 : CHILD, FAMILY, & COMMUNITY 302/06/2018 - 05/22/2018 3:30 PM - 6:05 PM T 21 Enroll Now
1521 CHLD 212 : ADV ISSUES INFANT-TODDLER CARE 303/31/2018 - 05/19/2018 8:30 AM - 2:40 PM S 24 Enroll Now
2891 CHLD 245 : ADULT SUPERVISION/MENTOR 301/22/2018 - 05/25/2018 6:30 PM - 9:30 PM M 1 Enroll Now
2035 CHLD 251 : ADMIN II: PERSONNEL & LEADER 301/22/2018 - 05/25/2018 6:30 PM - 9:20 PM TH 17 Enroll Now
1522 CHLD 270 : PRACTICUM - STUDENT TEACHING 301/22/2018 - 05/25/2018 6:30 PM - 7:20 PM W 7 Enroll Now
1899 COMM 101 : PUBLIC SPEAKING 301/22/2018 - 05/25/2018 6:00 PM - 8:50 PM T 5 Enroll Now
1906 COMM 101 : PUBLIC SPEAKING 301/22/2018 - 05/25/2018 6:00 PM - 8:50 PM W 2 Enroll Now
2987 COMM 101 : PUBLIC SPEAKING 301/22/2018 - 03/12/2018 6:00 PM - 9:05 PM M 1 Enroll Now
3132 COMM 101 : PUBLIC SPEAKING 303/26/2018 - 05/14/2018 6:00 PM - 9:05 PM M 16 Enroll Now
1506 COUN 100 : COLLEGE AND CAREER SUCCESS 301/22/2018 - 05/25/2018 10:30 AM - 11:45 AM MW 1 Enroll Now
2373 COUN 100 : COLLEGE AND CAREER SUCCESS 301/22/2018 - 05/25/2018 6:00 PM - 7:15 PM MW 11 Enroll Now
2375 COUN 100 : COLLEGE AND CAREER SUCCESS 301/22/2018 - 05/25/2018 12:00 PM - 1:15 PM W 22 Enroll Now
2703 COUN 100 : COLLEGE AND CAREER SUCCESS 302/06/2018 - 05/22/2018 3:00 PM - 4:35 PM TTH 19 Enroll Now
3024 COUN 100 : COLLEGE AND CAREER SUCCESS 303/26/2018 - 05/19/2018 1:00 AM - 1:00 AM ONL 22 Enroll Now
3559 COUN 100 : COLLEGE AND CAREER SUCCESS 303/26/2018 - 05/14/2018 12:00 PM - 2:50 PM M 35 Enroll Now
2954 COUN 101 : ORIENTATION TO COLLEGE 101/24/2018 - 03/14/2018 9:00 AM - 11:05 AM W 23 Enroll Now
1508 COUN 105 : TRANSFER SUCCESS 101/22/2018 - 05/25/2018 12:00 PM - 12:50 PM M 6 Enroll Now
1851 COUN 105 : TRANSFER SUCCESS 101/22/2018 - 05/25/2018 12:00 PM - 12:50 PM W 8 Enroll Now
2888 COUN 105 : TRANSFER SUCCESS 103/26/2018 - 05/14/2018 10:00 AM - 12:05 PM M 31 Enroll Now
2928 COUN 105 : TRANSFER SUCCESS 103/27/2018 - 05/15/2018 12:00 PM - 2:05 PM T 27 Enroll Now
2896 CRLP 101 : INTRO TO CAREER PLANNING 102/21/2018 - 03/14/2018 3:00 PM - 5:10 PM MW 23 Enroll Now
2897 CRLP 101 : INTRO TO CAREER PLANNING 103/26/2018 - 05/04/2018 1:00 AM - 1:00 AM ONL 31 Enroll Now
1247 CS 111 : INTRO TO COMPUTER SCI I: JAVA 301/22/2018 - 05/25/2018 1:30 PM - 2:30 PM MW 1 Enroll Now
2103 CS 111 : INTRO TO COMPUTER SCI I: JAVA 301/22/2018 - 05/25/2018 11:00 AM - 12:00 PM MW 8 Enroll Now
1253 CS 113 : BASIC DATA STRUCTRS/ALGORITHMS 301/22/2018 - 05/25/2018 5:30 PM - 7:30 PM M 1 Enroll Now
3087 CS 134 : MOBILE DEVICE APP DEVELOPMENT 301/22/2018 - 05/25/2018 5:30 PM - 7:30 PM W 5 Enroll Now
2898 CSIT 100 : COMPUTER BASICS I 201/22/2018 - 03/14/2018 10:30 AM - 11:55 AM MW 7 Enroll Now
2900 CSIT 105 : COMPUTER BASICS II 203/26/2018 - 05/16/2018 10:30 AM - 11:50 AM MW 13 Enroll Now
1765 CSIT 110 : COMPUTER APPLICATIONS 301/22/2018 - 05/25/2018 12:00 PM - 1:15 PM MW 5 Enroll Now
3112 CSIT 123 : INTRO APPLIED DATA ANALYTICS 301/22/2018 - 05/25/2018 10:30 AM - 11:45 AM TTH 2 Enroll Now
2794 CSIT 125 : MICROSOFT WORD FOR BUSINESS 302/05/2018 - 05/25/2018 1:00 AM - 1:00 AM ONL 5 Enroll Now
2796 CSIT 131 : MICROSOFT ACCESS FOR BUSINESS 302/05/2018 - 05/25/2018 1:00 AM - 1:00 AM ONL 15 Enroll Now
2797 CSIT 134 : MICROSOFT POWERPOINT FOR BUS 302/05/2018 - 05/25/2018 1:00 AM - 1:00 AM ONL 10 Enroll Now
2826 CSIT 149 : MICROSOFT WINDOWS 302/05/2018 - 05/25/2018 1:00 AM - 1:00 AM ONL 11 Enroll Now
3114 CSIT 160 : TECHNOL, INDIVIDUAL, & SOCIETY 302/05/2018 - 05/25/2018 1:00 AM - 1:00 AM ONL 24 Enroll Now
2834 CSIT 165 : LIVING IN AN ONLINE WORLD 302/05/2018 - 05/25/2018 1:00 AM - 1:00 AM ONL 1 Enroll Now
1777 CSIT 171 : FUND OF COMP NETWORKS & SECUR 401/22/2018 - 05/25/2018 5:30 PM - 9:20 PM T 1 Enroll Now
1861 CSIT 175 : LINUX NETWORKING ENVIRONMENT 401/22/2018 - 05/25/2018 5:30 PM - 9:30 PM M 7 Enroll Now
2390 CSIT 178 : NETWORK MOBILE DEVICE SECURITY 401/22/2018 - 05/25/2018 5:30 PM - 9:20 PM TH 9 Enroll Now
2123 CSIT 195 : COMPUTER STUDIES PORTFOLIO DEV 101/22/2018 - 05/25/2018 1:00 AM - 1:00 AM ONL 17 Enroll Now
2478 DESN 103 : ARCHITECTURAL COMMUNICATIONS 301/22/2018 - 05/25/2018 12:00 PM - 1:00 PM MW 9 Enroll Now
2038 DESN 107 : HIST OF WESTERN ARCHITECTURE 301/22/2018 - 05/25/2018 5:00 PM - 6:15 PM TTH 4 Enroll Now
2382 DESN 200 : ARCHITECTURAL DESIGN I 301/22/2018 - 05/25/2018 9:30 AM - 10:30 AM MW 4 Enroll Now
3441 DESN 207 : REVIT BUILDING INFORMATION MOD 301/22/2018 - 05/25/2018 1:00 AM - 1:00 AM ONL 8 Enroll Now
2756 DESN 290 : PORTFOLIO AND PRESENTATION 102/09/2018 - 05/25/2018 9:00 AM - 9:30 AM F 3 Enroll Now
2799 DNCE 101 : DANCE HISTORY 301/22/2018 - 05/25/2018 1:00 AM - 1:00 AM ONL 10 Enroll Now
2306 DNCE 104 : DANCE ON FILM 301/22/2018 - 05/25/2018 1:00 AM - 1:00 AM ONL 18 Enroll Now
2801 DNCE 105 : DANCE CULTURES OF THE WORLD 302/05/2018 - 05/25/2018 1:00 AM - 1:00 AM ONL 7 Enroll Now
2802 DNCE 105 : DANCE CULTURES OF THE WORLD 302/05/2018 - 05/25/2018 1:00 AM - 1:00 AM ONL 20 Enroll Now
2304 DNCE 122 : HIP HOP II 101/22/2018 - 05/25/2018 3:15 PM - 3:30 PM MW 18 Enroll Now
3464 DNCE 133 : AFRO-CUBAN DANCE II 102/07/2018 - 05/23/2018 6:00 PM - 6:30 PM W 15 Enroll Now
1784 DNCE 152 : BALLET I 201/22/2018 - 05/25/2018 5:30 PM - 5:45 PM TTH 17 Enroll Now
2618 DNCE 152 : BALLET I 201/27/2018 - 05/19/2018 9:00 AM - 9:30 AM S 18 Enroll Now
1786 DNCE 154 : BALLET II 201/22/2018 - 05/25/2018 10:45 AM - 11:00 AM TTH 19 Enroll Now
1788 DNCE 159 : PILATES MAT WORK I 101/22/2018 - 05/25/2018 8:00 AM - 8:15 AM MW 14 Enroll Now
1790 DNCE 166 : JAZZ DANCE I 201/22/2018 - 05/25/2018 9:00 AM - 9:15 AM MW 14 Enroll Now
3146 DNCE 169 : INTRO TO WORLD DANCE FORMS 102/05/2018 - 05/21/2018 6:00 PM - 6:40 PM M 17 Enroll Now
1900 DNCE 176 : MODERN DANCE I 201/22/2018 - 05/25/2018 12:30 PM - 12:45 PM MW 19 Enroll Now
1792 DNCE 178 : MODERN DANCE II 201/22/2018 - 05/25/2018 7:15 PM - 7:45 PM TTH 15 Enroll Now
2490 DNCE 183 : COMMERCIAL DANCE 101/22/2018 - 05/25/2018 2:15 PM - 2:45 PM MW 19 Enroll Now
1526 DRAM 105 : INTRO TO THEATRE 301/22/2018 - 05/25/2018 1:00 AM - 1:00 AM ONL 22 Enroll Now
1527 DRAM 110 : VOICE AND DICTION 301/22/2018 - 05/25/2018 1:30 PM - 2:45 PM TTH 3 Enroll Now
1528 DRAM 121 : DRAM LIT RESTORATION-PRESENT 301/22/2018 - 05/25/2018 1:00 AM - 1:00 AM ONL 27 Enroll Now
1529 DRAM 130 : ACTING I 301/22/2018 - 05/25/2018 8:30 AM - 9:30 AM MW 9 Enroll Now
2339 DRAM 130 : ACTING I 301/22/2018 - 05/25/2018 9:30 AM - 11:30 AM F 19 Enroll Now
3074 DRAM 131 : AUDITION PREP FOR STAGE 201/22/2018 - 05/25/2018 2:30 PM - 3:00 PM TTH 3 Enroll Now
2659 DRAM 141 : STAGE LIGHTING 302/06/2018 - 05/22/2018 10:50 AM - 11:50 AM TTH 8 Enroll Now
2711 DRAM 256 : STAGECRAFT 302/05/2018 - 05/23/2018 12:00 PM - 1:00 PM MW 13 Enroll Now
2893 DRAM 270 : REHEARSAL & PERF-TECH THEATRE 201/22/2018 - 03/18/2018 1:00 AM - 1:00 AM ARR 23 Enroll Now
2894 DRAM 270 : REHEARSAL & PERF-TECH THEATRE 203/26/2018 - 05/06/2018 1:00 AM - 1:00 AM ARR 29 Enroll Now
1320 EART 106 : EARTH & SPACE SCIENCE 301/22/2018 - 05/25/2018 9:00 AM - 10:15 AM TTH 11 Enroll Now
1003 ECON 100 : SURVEY OF ECONOMICS 301/22/2018 - 05/25/2018 12:00 PM - 1:15 PM MW 18 Enroll Now
1004 ECON 100 : SURVEY OF ECONOMICS 301/22/2018 - 05/25/2018 1:00 AM - 1:00 AM ONL 3 Enroll Now
2685 ECON 100 : SURVEY OF ECONOMICS 302/05/2018 - 05/21/2018 6:00 PM - 8:50 PM M 30 Enroll Now
1008 ECON 101 : PRINCIPLES OF ECON: MACRO 301/22/2018 - 05/25/2018 6:30 PM - 9:20 PM W 21 Enroll Now
2053 ECON 101 : PRINCIPLES OF ECON: MACRO 301/22/2018 - 05/25/2018 7:30 AM - 8:45 AM MW 1 Enroll Now
1013 ECON 102 : PRINCIPLES OF ECON: MICRO 301/22/2018 - 05/25/2018 1:30 PM - 2:45 PM TTH 9 Enroll Now
2760 ECON 102 : PRINCIPLES OF ECON: MICRO 302/09/2018 - 05/25/2018 12:00 PM - 3:50 PM F 26 Enroll Now
1096 ENGL 50 : INTRO TO COLLEGE COMPOSITION 401/22/2018 - 05/25/2018 7:00 AM - 8:50 AM TTH 10 Enroll Now
1098 ENGL 50 : INTRO TO COLLEGE COMPOSITION 401/22/2018 - 05/25/2018 1:30 PM - 3:20 PM MW 6 Enroll Now
1103 ENGL 50 : INTRO TO COLLEGE COMPOSITION 401/22/2018 - 05/25/2018 9:00 AM - 10:50 AM M 7 Enroll Now
3137 ENGL 52 : COLLEGE COMP SKILLS & SUPPORT 201/22/2018 - 05/25/2018 3:30 PM - 4:20 PM TTH 3 Enroll Now
3140 ENGL 52 : COLLEGE COMP SKILLS & SUPPORT 201/22/2018 - 05/25/2018 1:00 PM - 1:50 PM M 5 Enroll Now
3569 ENGL 52 : COLLEGE COMP SKILLS & SUPPORT 202/06/2018 - 05/24/2018 11:00 AM - 12:05 PM T 11 Enroll Now
1023 ENGL 100 : COMPOSITION & READING 401/22/2018 - 05/25/2018 9:00 AM - 10:50 AM MW 8 Enroll Now
1034 ENGL 100 : COMPOSITION & READING 401/22/2018 - 05/25/2018 3:30 PM - 5:20 PM MW 3 Enroll Now
1044 ENGL 100 : COMPOSITION & READING 401/22/2018 - 05/25/2018 6:00 PM - 9:50 PM W 1 Enroll Now
1046 ENGL 100 : COMPOSITION & READING 401/22/2018 - 05/25/2018 9:00 AM - 10:50 AM TTH 1 Enroll Now
1048 ENGL 100 : COMPOSITION & READING 401/22/2018 - 05/25/2018 8:00 AM - 12:00 PM F 16 Enroll Now
1052 ENGL 100 : COMPOSITION & READING 401/22/2018 - 05/25/2018 11:00 AM - 12:50 PM TTH 2 Enroll Now
1053 ENGL 100 : COMPOSITION & READING 401/22/2018 - 05/25/2018 1:30 PM - 3:20 PM MW 15 Enroll Now
1054 ENGL 100 : COMPOSITION & READING 401/22/2018 - 05/25/2018 1:30 PM - 3:20 PM TTH 9 Enroll Now
1056 ENGL 100 : COMPOSITION & READING 401/22/2018 - 05/25/2018 8:00 AM - 12:00 PM F 3 Enroll Now
2364 ENGL 100 : COMPOSITION & READING 401/22/2018 - 05/25/2018 8:00 AM - 12:00 PM F 17 Enroll Now
2430 ENGL 100 : COMPOSITION & READING 401/22/2018 - 05/25/2018 6:00 PM - 10:00 PM M 1 Enroll Now
2447 ENGL 100 : COMPOSITION & READING 401/22/2018 - 05/25/2018 9:00 AM - 10:50 AM MW 7 Enroll Now
2448 ENGL 100 : COMPOSITION & READING 401/22/2018 - 05/25/2018 3:30 PM - 5:20 PM TTH 5 Enroll Now
2616 ENGL 100 : COMPOSITION & READING 401/27/2018 - 05/19/2018 8:00 AM - 12:20 PM S 7 Enroll Now
2676 ENGL 100 : COMPOSITION & READING 401/22/2018 - 05/25/2018 1:30 PM - 3:20 PM M 3 Enroll Now
2708 ENGL 100 : COMPOSITION & READING 401/22/2018 - 05/25/2018 1:30 PM - 3:20 PM TTH 3 Enroll Now
2750 ENGL 100 : COMPOSITION & READING 402/09/2018 - 05/25/2018 8:00 AM - 1:05 PM F 15 Enroll Now
3142 ENGL 100 : COMPOSITION & READING 401/22/2018 - 05/25/2018 9:00 AM - 10:50 AM MW 4 Enroll Now
3145 ENGL 100 : COMPOSITION & READING 401/22/2018 - 05/25/2018 11:00 AM - 12:50 PM MW 5 Enroll Now
3570 ENGL 100 : COMPOSITION & READING 402/06/2018 - 05/24/2018 8:35 AM - 10:50 AM TTH 12 Enroll Now
3571 ENGL 100 : COMPOSITION & READING 402/06/2018 - 05/24/2018 8:35 AM - 10:50 AM TTH 11 Enroll Now
1074 ENGL 201 : CRITICAL THINKING, COMP & LIT 401/22/2018 - 05/25/2018 1:30 PM - 3:20 PM TTH 7 Enroll Now
3081 ENGL 201H : CRIT THNK, COMP & LIT (HONORS) 401/22/2018 - 05/25/2018 11:00 AM - 12:50 PM TTH 1 Enroll Now
2429 ENGL 202 : CRITICAL THINKING & COMP 401/22/2018 - 05/25/2018 6:00 PM - 7:50 PM TTH 10 Enroll Now
1694 ESL 30 : READING/VOCAB DEV-NON NATIVES 301/22/2018 - 05/25/2018 9:00 AM - 10:15 AM MW 9 Enroll Now
1695 ESL 40 : GRAM FOR NON-NATIVE SPEAKER EN 301/22/2018 - 05/25/2018 10:30 AM - 11:45 AM TTH 11 Enroll Now
3135 ESL 40 : GRAM FOR NON-NATIVE SPEAKER EN 303/27/2018 - 05/17/2018 6:00 PM - 9:05 PM TTH 22 Enroll Now
2734 ESL 80 : ADV GRAMMAR FOR NN SPEAKERS 302/06/2018 - 05/22/2018 10:30 AM - 11:45 AM TTH 21 Enroll Now
1687 ESL 149 : INTRO ACAD WRIT MULTILING BKG 401/22/2018 - 05/25/2018 8:30 AM - 10:20 AM T 13 Enroll Now
2730 ESL 149 : INTRO ACAD WRIT MULTILING BKG 402/05/2018 - 05/23/2018 6:00 PM - 9:05 PM M 21 Enroll Now
3567 ESL 149 : INTRO ACAD WRIT MULTILING BKG 402/06/2018 - 05/24/2018 12:00 PM - 2:20 PM T 22 Enroll Now
1689 ESL 150 : INTRO COLL COMP MULTILING BKG 401/22/2018 - 05/25/2018 12:00 PM - 2:20 PM T 9 Enroll Now
1691 ESL 150 : INTRO COLL COMP MULTILING BKG 401/22/2018 - 05/25/2018 8:30 AM - 10:20 AM T 5 Enroll Now
2713 ESL 150 : INTRO COLL COMP MULTILING BKG 402/05/2018 - 05/23/2018 1:30 PM - 3:20 PM M 11 Enroll Now
2715 ESL 150 : INTRO COLL COMP MULTILING BKG 402/05/2018 - 05/23/2018 6:00 PM - 9:05 PM M 19 Enroll Now
1311 FILM 101 : INTRO TO FILM 301/22/2018 - 05/25/2018 12:00 PM - 3:00 PM M 7 Enroll Now
2621 FILM 101 : INTRO TO FILM 301/27/2018 - 05/19/2018 9:00 AM - 12:10 PM S 8 Enroll Now
2854 FILM 101 : INTRO TO FILM 301/26/2018 - 05/25/2018 1:00 PM - 4:10 PM F 4 Enroll Now
3082 FILM 101H : INTRO TO FILM (HONORS) 301/22/2018 - 05/25/2018 5:00 PM - 8:00 PM M 1 Enroll Now
1317 FILM 106 : STUDY OF FILMED PLAYS 301/22/2018 - 05/25/2018 1:00 AM - 1:00 AM ONL 8 Enroll Now
2453 FILM 111 : FILM HIST I: 1880-1945 301/22/2018 - 05/25/2018 3:30 PM - 6:20 PM TH 17 Enroll Now
2420 FILM 211 : IDENTITY & FILM 301/22/2018 - 05/25/2018 5:00 PM - 7:50 PM W 3 Enroll Now
1406 FREN 101 : ELEM FRENCH 1ST SEMESTER 401/22/2018 - 05/25/2018 8:30 AM - 10:15 AM MW 1 Enroll Now
1408 FREN 101 : ELEM FRENCH 1ST SEMESTER 401/22/2018 - 05/25/2018 2:30 PM - 4:15 PM TTH 14 Enroll Now
1410 FREN 101 : ELEM FRENCH 1ST SEMESTER 401/22/2018 - 05/25/2018 11:00 AM - 12:45 PM TTH 11 Enroll Now
1412 FREN 102 : ELEM FRENCH 2ND SEMESTER 401/22/2018 - 05/25/2018 1:30 PM - 3:15 PM MW 7 Enroll Now
1855 FREN 102 : ELEM FRENCH 2ND SEMESTER 401/22/2018 - 05/25/2018 1:00 AM - 1:00 AM ONL 14 Enroll Now
2307 FREN 201 : INTER FRENCH 3RD SEMESTER 401/22/2018 - 05/25/2018 2:30 PM - 4:15 PM MW 6 Enroll Now
2411 FREN 202 : INTER FRENCH 4TH SEMESTER 401/22/2018 - 05/25/2018 4:00 PM - 5:45 PM TTH 20 Enroll Now
1535 GEOG 101 : PHYSICAL GEOGRAPHY 301/22/2018 - 05/25/2018 1:00 AM - 1:00 AM ONL 2 Enroll Now
1536 GEOG 101 : PHYSICAL GEOGRAPHY 301/22/2018 - 05/25/2018 12:00 PM - 1:15 PM TTH 1 Enroll Now
2690 GEOG 101 : PHYSICAL GEOGRAPHY 302/06/2018 - 05/22/2018 7:10 AM - 8:45 AM TTH 29 Enroll Now
2644 GEOG 102 : CULTURAL GEOGRAPHY 302/05/2018 - 05/21/2018 3:00 PM - 4:35 PM MW 19 Enroll Now
1538 GEOG 104 : WORLD GEOGRAPHY 301/22/2018 - 05/25/2018 9:00 AM - 10:15 AM MW 25 Enroll Now
2744 GEOG 104 : WORLD GEOGRAPHY 302/06/2018 - 05/22/2018 6:00 PM - 9:25 PM T 39 Enroll Now
3095 GEOG 108 : ENVIRONMENTAL SUSTAINABILITY 302/08/2018 - 05/24/2018 6:00 PM - 9:25 PM TH 29 Enroll Now
1747 GEOL 101 : PHYSICAL GEOLOGY 301/22/2018 - 05/25/2018 9:00 AM - 10:15 AM MW 11 Enroll Now
3063 GRMN 121 : INTRO TO GERMAN CULTURE 301/22/2018 - 05/25/2018 5:30 PM - 6:45 PM MW 15 Enroll Now
1625 HEAL 101 : PRINCIPLES OF HEALTH 301/22/2018 - 05/25/2018 7:30 AM - 8:45 AM TTH 27 Enroll Now
1626 HEAL 101 : PRINCIPLES OF HEALTH 301/22/2018 - 05/25/2018 12:00 PM - 1:15 PM MW 4 Enroll Now
1630 HEAL 101 : PRINCIPLES OF HEALTH 301/22/2018 - 05/25/2018 1:00 AM - 1:00 AM ONL 10 Enroll Now
1269 HIST 101 : WORLD HISTORY SINCE 1500 301/22/2018 - 05/25/2018 9:00 AM - 10:15 AM TTH 13 Enroll Now
2745 HIST 101 : WORLD HISTORY SINCE 1500 302/07/2018 - 05/23/2018 6:00 PM - 9:25 PM W 34 Enroll Now
3125 HIST 102 : HISTORY MODERN OF MIDDLE EAST 301/22/2018 - 05/25/2018 4:30 PM - 5:45 PM MW 24 Enroll Now
2656 HIST 103 : ORIGINS OF WESTERN CULTURE 302/05/2018 - 05/23/2018 12:00 PM - 1:35 PM MW 25 Enroll Now
2131 HIST 104 : MODERN WESTERN CULTURE 301/22/2018 - 05/25/2018 9:00 AM - 10:15 AM MW 18 Enroll Now
2450 HIST 104 : MODERN WESTERN CULTURE 301/22/2018 - 05/25/2018 1:30 PM - 2:45 PM TTH 14 Enroll Now
1272 HIST 107 : EAST ASIAN SOCIETIES 301/22/2018 - 05/25/2018 9:00 AM - 10:15 AM MW 21 Enroll Now
1276 HIST 110 : UNITED STATES HISTORY TO 1877 301/22/2018 - 05/25/2018 6:00 PM - 9:00 PM M 1 Enroll Now
1277 HIST 110 : UNITED STATES HISTORY TO 1877 301/22/2018 - 05/25/2018 6:00 PM - 8:50 PM T 20 Enroll Now
1902 HIST 110 : UNITED STATES HISTORY TO 1877 301/22/2018 - 05/25/2018 12:00 PM - 1:15 PM TTH 20 Enroll Now
1281 HIST 111 : US HISTORY SINCE 1877 301/22/2018 - 05/25/2018 7:30 AM - 8:45 AM MW 2 Enroll Now
1284 HIST 111 : US HISTORY SINCE 1877 301/22/2018 - 05/25/2018 6:00 PM - 8:50 PM W 12 Enroll Now
1287 HIST 111 : US HISTORY SINCE 1877 301/22/2018 - 05/25/2018 1:00 AM - 1:00 AM ONL 2 Enroll Now
2358 HIST 111 : US HISTORY SINCE 1877 301/22/2018 - 05/25/2018 6:00 PM - 8:50 PM TH 29 Enroll Now
2748 HIST 111 : US HISTORY SINCE 1877 302/08/2018 - 05/24/2018 6:00 PM - 9:25 PM TH 33 Enroll Now
3572 HIST 111H : US HISTORY SINCE 1877 (HONORS) 302/05/2018 - 05/25/2018 1:00 AM - 1:00 AM ONL 21 Enroll Now
2323 HIST 113 : AMERICAN MILITARY HISTORY 301/22/2018 - 05/25/2018 12:00 PM - 1:15 PM TTH 7 Enroll Now
3084 HIST 115H : WOMEN IN AMER HISTORY (HONORS) 301/22/2018 - 05/25/2018 1:30 PM - 2:45 PM MW 2 Enroll Now
1292 HIST 145 : AFRICAN AMER HISTORY TO 1877 301/22/2018 - 05/25/2018 4:30 PM - 5:45 PM TTH 8 Enroll Now
1808 HORT 134 : INTEGRATED PEST MGMT 301/22/2018 - 05/25/2018 5:00 PM - 7:00 PM T 1 Enroll Now
1810 HORT 140 : SUBTROP FRUIT & PLANT PRODUCTN 301/22/2018 - 05/25/2018 5:30 PM - 7:30 PM M 11 Enroll Now
3128 HORT 148 : INTRO TO WINE PRODUCTION 201/22/2018 - 05/25/2018 6:00 PM - 7:00 PM TH 11 Enroll Now
3444 HORT 149 : VINEYARD PRODUCTION & MGMT 301/22/2018 - 05/25/2018 7:30 PM - 9:30 PM M 4 Enroll Now
3130 HORT 162 : ORGANIC CROP PRODUCTION: WARM 201/22/2018 - 05/25/2018 9:00 AM - 10:00 AM F 6 Enroll Now
3182 HORT 166 : Intro Sustainable Agriculture 301/22/2018 - 05/25/2018 6:00 PM - 8:50 PM TH 9 Enroll Now
2366 HOSP 100 : INTRO TO HOSP MANAGEMENT 301/22/2018 - 05/25/2018 5:00 PM - 6:20 PM T 20 Enroll Now
2775 HOSP 114 : HOSPITALITY LAW 302/05/2018 - 05/25/2018 1:00 AM - 1:00 AM ONL 2 Enroll Now
2776 HOSP 130 : CONFERENCE & SPEC EVENT MGMT 302/05/2018 - 05/25/2018 1:00 AM - 1:00 AM ONL 8 Enroll Now
2777 HOSP 133 : FRONT OFFICE MANAGEMENT 302/05/2018 - 05/25/2018 1:00 AM - 1:00 AM ONL 16 Enroll Now
2749 HOSP 145 : PROFESSIONAL DEVELOPMENT 302/08/2018 - 05/24/2018 5:30 PM - 6:50 PM TH 29 Enroll Now
2743 HOSP 153 : RESTAURANT MGMT 302/07/2018 - 05/23/2018 5:00 PM - 6:20 PM W 23 Enroll Now
1318 HUMN 101 : INTRO TO THE ARTS 301/22/2018 - 05/25/2018 6:00 PM - 8:50 PM TH 1 Enroll Now
3136 HUMN 202 : HUMANITIES OF WESTERN WORLD 301/22/2018 - 05/25/2018 9:00 AM - 10:15 AM TTH 14 Enroll Now
1322 ITAL 101 : ELEM ITALIAN 1ST SEMESTER 401/23/2018 - 03/15/2018 9:30 AM - 11:15 AM TTH 19 Enroll Now
1324 ITAL 101 : ELEM ITALIAN 1ST SEMESTER 401/22/2018 - 05/25/2018 1:00 AM - 1:00 AM ONL 3 Enroll Now
1326 ITAL 102 : ELEM ITALIAN 2ND SEMESTER 403/27/2018 - 05/17/2018 9:30 AM - 11:15 AM TTH 26 Enroll Now
2302 ITAL 103 : ELEM ITAL SPAN SPEAK 1ST SEM 401/22/2018 - 05/25/2018 1:00 AM - 1:00 AM ONL 18 Enroll Now
3064 ITAL 121 : INTRO TO ITALIAN CULTURE 301/22/2018 - 05/25/2018 1:00 AM - 1:00 AM ONL 15 Enroll Now
1328 JAPN 101 : ELEM JAPANESE 1ST SEMESTER 401/22/2018 - 05/25/2018 12:00 PM - 1:45 PM TTH 18 Enroll Now
1330 JAPN 101 : ELEM JAPANESE 1ST SEMESTER 401/22/2018 - 05/25/2018 4:00 PM - 5:45 PM MW 10 Enroll Now
2496 JAPN 101 : ELEM JAPANESE 1ST SEMESTER 401/22/2018 - 05/25/2018 11:00 AM - 12:45 PM MW 13 Enroll Now
1332 JAPN 102 : ELEM JAPANESE 2ND SEMESTER 401/22/2018 - 05/25/2018 6:30 PM - 8:15 PM TTH 6 Enroll Now
2138 JAPN 102 : ELEM JAPANESE 2ND SEMESTER 401/22/2018 - 05/25/2018 12:00 PM - 1:45 PM MW 11 Enroll Now
2067 JAPN 202 : INTER JAPANESE 4TH SEMESTER 401/22/2018 - 05/25/2018 3:00 PM - 4:45 PM TTH 14 Enroll Now
2262 KINE 100 : FUNCTIONAL RESISTANCE TRAINING 101/22/2018 - 05/25/2018 10:30 AM - 11:45 AM TTH 1 Enroll Now
3035 KINE 100 : FUNCTIONAL RESISTANCE TRAINING 101/22/2018 - 05/25/2018 3:00 PM - 4:15 PM MW 8 Enroll Now
2081 KINE 112 : CARDIORESP STABILIZATION TRNG 101/22/2018 - 05/25/2018 7:30 AM - 8:45 AM TTH 18 Enroll Now
2098 KINE 113 : CARDIORESP STRENGTH TRAINING 101/22/2018 - 05/25/2018 7:30 AM - 8:45 AM TTH 11 Enroll Now
2434 KINE 114 : CARDIORESP POWER TRAINING 101/22/2018 - 05/25/2018 7:30 AM - 8:45 AM TTH 19 Enroll Now
1928 KINE 141 : STABILIZATION WEIGHT TRAINING 101/22/2018 - 05/25/2018 9:00 AM - 10:15 AM MW 5 Enroll Now
2092 KINE 143 : STRENGTH ENDURANCE TRAINING 101/22/2018 - 05/25/2018 7:30 AM - 8:45 AM MW 10 Enroll Now
2093 KINE 143 : STRENGTH ENDURANCE TRAINING 101/22/2018 - 05/25/2018 10:30 AM - 11:45 AM MW 9 Enroll Now
2717 KINE 145 : YOGA TEACHER TRNG FOUNDATION 302/06/2018 - 05/22/2018 11:00 AM - 12:00 PM TTH 9 Enroll Now
2691 KINE 147 : YOGA TEACHER TRAIN DEVELOPMENT 302/06/2018 - 05/24/2018 1:30 PM - 2:30 PM TTH 13 Enroll Now
1929 KINE 150 : BEGINNING YOGA 101/22/2018 - 05/25/2018 12:00 PM - 1:15 PM MW 4 Enroll Now
1930 KINE 150 : BEGINNING YOGA 102/06/2018 - 05/22/2018 3:30 PM - 5:05 PM TTH 1 Enroll Now
1931 KINE 150 : BEGINNING YOGA 101/22/2018 - 05/25/2018 9:30 AM - 10:45 AM TTH 8 Enroll Now
2300 KINE 150 : BEGINNING YOGA 102/05/2018 - 05/21/2018 5:30 PM - 7:05 PM MW 11 Enroll Now
2545 KINE 150 : BEGINNING YOGA 101/22/2018 - 05/25/2018 3:00 PM - 4:15 PM TTH 14 Enroll Now
3037 KINE 150 : BEGINNING YOGA 101/22/2018 - 05/25/2018 5:30 PM - 6:45 PM MW 10 Enroll Now
3038 KINE 150 : BEGINNING YOGA 102/06/2018 - 05/24/2018 9:00 AM - 10:35 AM TTH 16 Enroll Now
2080 KINE 154 : INTERMEDIATE YOGA 101/22/2018 - 05/25/2018 5:30 PM - 6:45 PM MW 23 Enroll Now
2094 KINE 154 : INTERMEDIATE YOGA 101/22/2018 - 05/25/2018 9:30 AM - 10:45 AM TTH 16 Enroll Now
2095 KINE 154 : INTERMEDIATE YOGA 102/06/2018 - 05/22/2018 3:30 PM - 5:05 PM TTH 23 Enroll Now
2096 KINE 154 : INTERMEDIATE YOGA 101/22/2018 - 05/25/2018 3:00 PM - 4:15 PM TTH 16 Enroll Now
2263 KINE 154 : INTERMEDIATE YOGA 102/06/2018 - 05/24/2018 9:00 AM - 10:35 AM TTH 15 Enroll Now
2301 KINE 154 : INTERMEDIATE YOGA 102/05/2018 - 05/21/2018 5:30 PM - 7:05 PM MW 18 Enroll Now
2406 KINE 154 : INTERMEDIATE YOGA 101/22/2018 - 05/25/2018 12:00 PM - 1:15 PM MW 20 Enroll Now
2097 KINE 155 : ADVANCED YOGA 101/22/2018 - 05/25/2018 5:30 PM - 6:45 PM MW 15 Enroll Now
2404 KINE 155 : ADVANCED YOGA 101/22/2018 - 05/25/2018 3:00 PM - 4:15 PM TTH 18 Enroll Now
2405 KINE 155 : ADVANCED YOGA 102/06/2018 - 05/24/2018 9:00 AM - 10:35 AM TTH 17 Enroll Now
3039 KINE 155 : ADVANCED YOGA 102/05/2018 - 05/21/2018 5:30 PM - 7:05 PM MW 19 Enroll Now
2079 KINE 156 : CORRECTIVE FLEXIBILITY TRNG 101/22/2018 - 05/25/2018 7:30 AM - 8:45 AM MW 11 Enroll Now
2298 KINE 157 : ACTIVE FLEXIBILITY TRAINING 101/22/2018 - 05/25/2018 7:30 AM - 8:45 AM MW 16 Enroll Now
2299 KINE 158 : FUNCTIONAL FLEXIBILITY TRNG 101/22/2018 - 05/25/2018 7:30 AM - 8:45 AM MW 23 Enroll Now
2699 KINE 159 : YOGA TEACHER TRNG IMPLEMENT 302/06/2018 - 05/24/2018 1:00 PM - 2:00 PM TTH 4 Enroll Now
1891 KINE 161 : BEGINNING MARTIAL ARTS 101/22/2018 - 05/25/2018 9:00 AM - 10:15 AM TTH 29 Enroll Now
2259 KINE 162 : INTERMEDIATE MARTIAL ARTS 101/22/2018 - 05/25/2018 9:00 AM - 10:15 AM TTH 34 Enroll Now
2260 KINE 163 : ADVANCED MARTIAL ARTS 101/22/2018 - 05/25/2018 9:00 AM - 10:15 AM TTH 41 Enroll Now
1818 KINE 190 : INTRO TO KINESIOLOGY 301/22/2018 - 05/25/2018 4:30 PM - 5:45 PM MW 4 Enroll Now
1820 KINE 190 : INTRO TO KINESIOLOGY 301/22/2018 - 05/25/2018 1:00 AM - 1:00 AM ONL 20 Enroll Now
1822 KINE 203 : TECHNIQUES ATHLETIC TRAINING 301/22/2018 - 05/25/2018 9:00 AM - 10:00 AM TTH 15 Enroll Now
1824 KINE 204 : TECH & ANAL OF FIT/WGHT TRNG 301/22/2018 - 05/25/2018 6:00 PM - 6:50 PM MW 8 Enroll Now
2803 KINE 210 : EXERCISE RX FOR SPECIAL POPS 302/05/2018 - 05/25/2018 1:00 AM - 1:00 AM ONL 4 Enroll Now
3004 LIBR 101 : COLLEGE RESEARCH SKILLS 103/26/2018 - 05/19/2018 1:00 AM - 1:00 AM ONL 8 Enroll Now
1294 LIT 120 : INTRO TO LITERATURE 301/22/2018 - 05/25/2018 12:00 PM - 1:15 PM MW 12 Enroll Now
1866 LIT 120 : INTRO TO LITERATURE 301/22/2018 - 05/25/2018 12:00 PM - 1:15 PM MW 11 Enroll Now
2315 LIT 251 : AMER LIT: MID 1800s TO PRESENT 301/22/2018 - 05/25/2018 1:00 AM - 1:00 AM ONL 1 Enroll Now
1295 LIT 261 : ENGL LIT: ROMANTIC TO CONTEMP 301/22/2018 - 05/25/2018 10:30 AM - 11:45 AM MW 7 Enroll Now
2071 LIT 271 : WORLD LITERATURE SINCE 1600 301/22/2018 - 05/25/2018 10:30 AM - 11:45 AM TTH 13 Enroll Now
1780 LRNS 40 : EDUCATIONAL PLANNING & ASSESS 101/22/2018 - 05/25/2018 1:00 AM - 1:00 AM ARR 30 Enroll Now
1781 LRNS 42 : MATH STRATEGIES - LRNG DSBD 301/22/2018 - 05/25/2018 10:30 AM - 11:45 AM TTH 1 Enroll Now
1782 LRNS 46 : ENGLISH ESSENTIALS- LRNG DSBD 301/22/2018 - 05/25/2018 9:00 AM - 10:15 AM TTH 9 Enroll Now
2040 MAP 101 : MEDICAL KEYBOARDING & DOC PROD 301/22/2018 - 05/25/2018 1:00 AM - 1:00 AM ONL 1 Enroll Now
1501 MAP 104 : MEDICAL CODING 301/22/2018 - 05/25/2018 6:30 PM - 9:20 PM T 10 Enroll Now
1502 MAP 105 : MEDICAL INSURANCE AND BILLING 301/22/2018 - 05/25/2018 6:30 PM - 9:30 PM M 14 Enroll Now
2486 MAP 150 : INTRO TO PATIENT ADVOCACY 301/22/2018 - 05/25/2018 6:30 PM - 9:30 PM M 32 Enroll Now
2931 MASG 210 : THERAPEUTIC MASG DEV 303/26/2018 - 05/18/2018 8:00 AM - 9:20 AM MWF 13 Enroll Now
2623 MASG 215 : MASSAGE CLINICAL PRACTICUM 301/27/2018 - 05/19/2018 8:00 AM - 10:05 AM S 12 Enroll Now
2933 MASG 218 : CHAIR MASSAGE & AROMATHERAPY 301/22/2018 - 03/16/2018 10:10 AM - 11:35 AM MWF 3 Enroll Now
2935 MASG 220 : SPORTS MASSAGE 303/26/2018 - 05/18/2018 8:00 AM - 9:15 AM MWF 13 Enroll Now
2402 MASG 240 : THERAPEUTIC MASG IMPLEMENTATN 301/22/2018 - 05/25/2018 10:30 AM - 11:30 AM TTH 7 Enroll Now
2950 MASG 260 : THERAPEUTIC MASG PAIN MGMT 301/26/2018 - 05/25/2018 12:00 PM - 2:00 PM F 14 Enroll Now
3556 MAT 135 : GRAPHIC DESIGN 1: PRINCIPLES 302/05/2018 - 05/25/2018 1:00 AM - 1:00 AM ONL 9 Enroll Now
2112 MAT 175 : WEB DESIGN JAVASCRIPT & JQUERY 301/22/2018 - 05/25/2018 1:00 AM - 1:00 AM ONL 8 Enroll Now
1584 MAT 180 : DIG PUBLISH: ADOBE INDESIGN 301/22/2018 - 05/25/2018 11:30 AM - 12:45 PM TTH 6 Enroll Now
2488 MAT 185 : GRAPHIC DESIGN 3: DESGN/LAYOUT 301/22/2018 - 05/25/2018 9:30 AM - 10:30 AM TTH 8 Enroll Now
3049 MATH 28 : MATH FUNDAMENTALS FOR STATS I 401/22/2018 - 05/25/2018 8:30 AM - 10:15 AM TTH 3 Enroll Now
3432 MATH 28 : MATH FUNDAMENTALS FOR STATS I 401/22/2018 - 05/25/2018 11:00 AM - 12:45 PM TTH 9 Enroll Now
3537 MATH 28 : MATH FUNDAMENTALS FOR STATS I 401/22/2018 - 05/25/2018 1:25 PM - 2:15 PM MTWT5 Enroll Now
2216 MATH 30 : ELEMENTARY ALGEBRA 401/22/2018 - 03/15/2018 1:30 PM - 3:35 PM MTWT10 Enroll Now
2223 MATH 64 : INTERMEDIATE ALGEBRA 401/22/2018 - 05/25/2018 9:00 AM - 10:50 AM F 18 Enroll Now
2224 MATH 64 : INTERMEDIATE ALGEBRA 401/22/2018 - 05/25/2018 11:00 AM - 12:50 PM F 5 Enroll Now
2231 MATH 64 : INTERMEDIATE ALGEBRA 401/22/2018 - 05/25/2018 12:30 PM - 1:45 PM M 1 Enroll Now
2234 MATH 64 : INTERMEDIATE ALGEBRA 401/22/2018 - 05/25/2018 7:00 PM - 8:15 PM T 18 Enroll Now
2235 MATH 64 : INTERMEDIATE ALGEBRA 401/22/2018 - 05/25/2018 10:00 AM - 11:15 AM T 19 Enroll Now
2236 MATH 64 : INTERMEDIATE ALGEBRA 401/22/2018 - 05/25/2018 12:00 PM - 1:15 PM M 26 Enroll Now
2433 MATH 64 : INTERMEDIATE ALGEBRA 401/22/2018 - 05/25/2018 5:30 PM - 7:20 PM MW 7 Enroll Now
2446 MATH 64 : INTERMEDIATE ALGEBRA 401/22/2018 - 05/25/2018 3:30 PM - 5:20 PM TTH 4 Enroll Now
2943 MATH 64 : INTERMEDIATE ALGEBRA 403/26/2018 - 05/17/2018 1:30 PM - 3:35 PM MTWT9 Enroll Now
2337 MATH 95 : MATH FUNDAMENTALS FOR STATS II 401/22/2018 - 05/25/2018 10:30 AM - 11:20 AM MTWT3 Enroll Now
3053 MATH 95 : MATH FUNDAMENTALS FOR STATS II 401/22/2018 - 05/25/2018 8:30 AM - 10:15 AM MW 6 Enroll Now
3070 MATH 95 : MATH FUNDAMENTALS FOR STATS II 401/22/2018 - 05/25/2018 7:30 PM - 9:15 PM TTH 11 Enroll Now
2198 MATH 103 : STATISTICS 401/22/2018 - 05/25/2018 5:30 PM - 7:20 PM TTH 6 Enroll Now
2201 MATH 103 : STATISTICS 401/22/2018 - 05/25/2018 5:30 PM - 7:20 PM MW 11 Enroll Now
2480 MATH 103 : STATISTICS 401/22/2018 - 05/25/2018 11:30 AM - 1:20 PM TH 4 Enroll Now
3046 MATH 103 : STATISTICS 401/22/2018 - 05/25/2018 11:30 AM - 1:20 PM TTH 1 Enroll Now
2328 MATH 106 : CONCEPTS & STRUCTURES MATH II 301/22/2018 - 05/25/2018 9:00 AM - 10:00 AM MW 1 Enroll Now
3042 MATH 112 : MATH ANALYSIS 301/22/2018 - 05/25/2018 11:00 AM - 2:00 PM F 30 Enroll Now
2189 MATH 115 : CALCULUS W/ APPLICATIONS 401/22/2018 - 05/25/2018 7:00 AM - 8:50 AM MW 1 Enroll Now
2192 MATH 115 : CALCULUS W/ APPLICATIONS 401/22/2018 - 05/25/2018 7:30 PM - 9:20 PM TTH 23 Enroll Now
2193 MATH 115 : CALCULUS W/ APPLICATIONS 401/22/2018 - 05/25/2018 1:00 AM - 1:00 AM ONL 4 Enroll Now
2341 MATH 115 : CALCULUS W/ APPLICATIONS 401/22/2018 - 05/25/2018 11:30 AM - 1:20 PM TTH 11 Enroll Now
2184 MATH 126 : PRE-CALCULUS I: COLLEGE ALGEBR 401/22/2018 - 05/25/2018 1:00 PM - 2:50 PM MW 1 Enroll Now
2187 MATH 126 : PRE-CALCULUS I: COLLEGE ALGEBR 401/22/2018 - 05/25/2018 1:00 AM - 1:00 AM ONL 16 Enroll Now
2188 MATH 126 : PRE-CALCULUS I: COLLEGE ALGEBR 401/22/2018 - 05/25/2018 1:00 AM - 1:00 AM ONL 15 Enroll Now
2395 MATH 126 : PRE-CALCULUS I: COLLEGE ALGEBR 401/22/2018 - 05/25/2018 1:00 AM - 1:00 AM ONL 1 Enroll Now
2481 MATH 126 : PRE-CALCULUS I: COLLEGE ALGEBR 401/22/2018 - 05/25/2018 7:00 AM - 8:50 AM TTH 3 Enroll Now
2555 MATH 126 : PRE-CALCULUS I: COLLEGE ALGEBR 401/22/2018 - 05/25/2018 7:30 PM - 9:20 PM MW 6 Enroll Now
2944 MATH 126 : PRE-CALCULUS I: COLLEGE ALGEBR 401/22/2018 - 03/26/2018 9:00 AM - 10:50 AM MTWT2 Enroll Now
3021 MATH 126 : PRE-CALCULUS I: COLLEGE ALGEBR 401/22/2018 - 05/25/2018 1:00 AM - 1:00 AM ONL 16 Enroll Now
2180 MATH 131 : PRE-CALCULUS II: TRIGONOMETRY 401/22/2018 - 05/25/2018 7:30 PM - 9:20 PM TTH 17 Enroll Now
2342 MATH 131 : PRE-CALCULUS II: TRIGONOMETRY 401/22/2018 - 05/25/2018 11:00 AM - 12:50 PM TTH 3 Enroll Now
2937 MATH 131 : PRE-CALCULUS II: TRIGONOMETRY 403/27/2018 - 05/21/2018 9:00 AM - 10:50 AM MTWT2 Enroll Now
2176 MATH 150 : CALCULUS & ANALYTIC GEOMETRY I 501/22/2018 - 05/25/2018 5:00 PM - 7:20 PM TTH 11 Enroll Now
2177 MATH 150 : CALCULUS & ANALYTIC GEOMETRY I 501/22/2018 - 05/25/2018 5:00 PM - 7:20 PM TTH 20 Enroll Now
2178 MATH 150 : CALCULUS & ANALYTIC GEOMETRY I 501/22/2018 - 05/25/2018 1:00 PM - 3:20 PM MW 5 Enroll Now
2332 MATH 150 : CALCULUS & ANALYTIC GEOMETRY I 501/22/2018 - 05/25/2018 1:00 AM - 1:00 AM ONL 1 Enroll Now
2471 MATH 150 : CALCULUS & ANALYTIC GEOMETRY I 501/22/2018 - 05/25/2018 3:00 PM - 5:20 PM MW 19 Enroll Now
3041 MATH 150 : CALCULUS & ANALYTIC GEOMETRY I 501/22/2018 - 05/25/2018 1:00 AM - 1:00 AM ONL 15 Enroll Now
2172 MATH 155 : CALC & ANALYTIC GEOMETRY II 401/22/2018 - 05/25/2018 8:00 PM - 9:50 PM TTH 26 Enroll Now
2396 MATH 155 : CALC & ANALYTIC GEOMETRY II 401/22/2018 - 05/25/2018 3:30 PM - 5:20 PM MW 7 Enroll Now
2397 MATH 155 : CALC & ANALYTIC GEOMETRY II 401/22/2018 - 05/25/2018 1:00 PM - 2:50 PM TTH 2 Enroll Now
2472 MATH 155 : CALC & ANALYTIC GEOMETRY II 401/22/2018 - 05/25/2018 1:00 AM - 1:00 AM ONL 4 Enroll Now
3535 MATH 226 : DISCRETE MATHEMATICS 401/22/2018 - 05/25/2018 1:00 AM - 1:00 AM ONL 21 Enroll Now
2163 MATH 270 : LINEAR ALGEBRA 401/22/2018 - 05/25/2018 4:00 PM - 5:50 PM TTH 3 Enroll Now
2469 MATH 270 : LINEAR ALGEBRA 401/22/2018 - 05/25/2018 1:30 PM - 3:20 PM MW 8 Enroll Now
3057 MATH 296-1 : INTERMEDIATE ALGEBRA REVIEW 101/22/2018 - 05/25/2018 11:30 AM - 12:20 PM M 1 Enroll Now
3059 MATH 296-1 : INTERMEDIATE ALGEBRA REVIEW 101/22/2018 - 05/25/2018 6:00 PM - 6:50 PM T 18 Enroll Now
3060 MATH 296-1 : INTERMEDIATE ALGEBRA REVIEW 101/22/2018 - 05/25/2018 9:00 AM - 9:50 AM T 19 Enroll Now
3061 MATH 296-1 : INTERMEDIATE ALGEBRA REVIEW 101/22/2018 - 05/25/2018 11:00 AM - 11:50 AM M 26 Enroll Now
1941 MTEC 141 : SOUND REINFORCEMENT II 201/22/2018 - 05/25/2018 5:30 PM - 7:00 PM M 14 Enroll Now
1943 MTEC 150 : AUDIO EQUIPMENT MAINTENANCE 201/22/2018 - 05/25/2018 5:30 PM - 7:00 PM TH 16 Enroll Now
1947 MTEC 211 : RECORDING ARTS IV 201/22/2018 - 05/25/2018 5:30 PM - 7:00 PM W 6 Enroll Now
1945 MTEC 220 : DIGITAL AUDIO PRODUCTION II 201/22/2018 - 05/25/2018 1:30 PM - 3:00 PM T 14 Enroll Now
3485 MTEC 230 : ELECTRONIC MUS SOUND DESN II 201/22/2018 - 05/25/2018 5:30 PM - 7:00 PM W 20 Enroll Now
1949 MTEC 260 : BUSINESS OF MUSIC II 201/22/2018 - 05/25/2018 5:30 PM - 7:20 PM T 5 Enroll Now
2740 MUS 100 : INTRO TO MUSIC THEORY 302/05/2018 - 05/25/2018 1:00 AM - 1:00 AM ONL 1 Enroll Now
2787 MUS 100 : INTRO TO MUSIC THEORY 302/05/2018 - 05/25/2018 1:00 AM - 1:00 AM ONL 8 Enroll Now
1636 MUS 101 : MUSIC THEORY I 301/22/2018 - 05/25/2018 10:30 AM - 11:45 AM MW 13 Enroll Now
1637 MUS 103 : MUSICIANSHIP I 101/22/2018 - 05/25/2018 8:00 AM - 9:50 AM W 14 Enroll Now
1638 MUS 113 : MUSIC OF MULTICULTURAL AMER 301/22/2018 - 05/25/2018 10:30 AM - 11:45 AM TTH 14 Enroll Now
2062 MUS 113 : MUSIC OF MULTICULTURAL AMER 301/22/2018 - 05/25/2018 1:00 AM - 1:00 AM ONL 5 Enroll Now
1639 MUS 114 : HISTORY OF ROCK & ROLL 301/22/2018 - 05/25/2018 2:00 PM - 4:50 PM TH 4 Enroll Now
1892 MUS 114 : HISTORY OF ROCK & ROLL 301/22/2018 - 05/25/2018 5:30 PM - 8:20 PM T 5 Enroll Now
2344 MUS 114 : HISTORY OF ROCK & ROLL 301/22/2018 - 05/25/2018 9:00 AM - 11:50 AM T 11 Enroll Now
1894 MUS 115 : INTRO TO WESTERN MUSIC 301/22/2018 - 05/25/2018 10:30 AM - 11:45 AM MW 17 Enroll Now
3152 MUS 115 : INTRO TO WESTERN MUSIC 302/05/2018 - 05/25/2018 1:00 AM - 1:00 AM ONL 21 Enroll Now
2758 MUS 116 : A SURVEY OF WORLD MUSIC 302/09/2018 - 05/25/2018 9:00 AM - 12:50 PM F 21 Enroll Now
1641 MUS 119 : JAZZ HISTORY 301/22/2018 - 05/25/2018 1:00 AM - 1:00 AM ONL 1 Enroll Now
1642 MUS 120 : PIANO I 101/22/2018 - 05/25/2018 9:00 AM - 9:15 AM MW 5 Enroll Now
1644 MUS 120 : PIANO I 101/22/2018 - 05/25/2018 6:30 PM - 6:45 PM TTH 9 Enroll Now
2678 MUS 120 : PIANO I 102/05/2018 - 05/21/2018 6:00 PM - 6:30 PM M 8 Enroll Now
2767 MUS 120 : PIANO I 101/22/2018 - 05/25/2018 9:00 AM - 9:30 AM F 8 Enroll Now
2683 MUS 121 : PIANO II 102/05/2018 - 05/21/2018 6:00 PM - 6:30 PM M 17 Enroll Now
2754 MUS 121 : PIANO II 101/22/2018 - 05/25/2018 9:00 AM - 9:15 AM MW 20 Enroll Now
3342 MUS 121 : PIANO II 101/22/2018 - 05/25/2018 9:00 AM - 9:30 AM F 17 Enroll Now
3469 MUS 121 : PIANO II 101/22/2018 - 05/25/2018 6:30 PM - 6:45 PM TTH 23 Enroll Now
1646 MUS 129 : PIANO FOR MUSIC MAJORS 101/22/2018 - 05/25/2018 10:30 AM - 11:45 AM TTH 10 Enroll Now
1750 MUS 130 : GUITAR I 101/22/2018 - 05/25/2018 3:00 PM - 3:30 PM W 5 Enroll Now
3435 MUS 130 : GUITAR I 101/29/2018 - 05/14/2018 5:30 PM - 6:05 PM M 8 Enroll Now
3437 MUS 130 : GUITAR I 101/22/2018 - 05/25/2018 6:00 PM - 6:30 PM T 22 Enroll Now
1752 MUS 141 : VOCAL FUNDAMENTALS 101/22/2018 - 05/25/2018 8:30 AM - 9:00 AM T 5 Enroll Now
1909 MUS 141 : VOCAL FUNDAMENTALS 101/22/2018 - 05/25/2018 6:30 PM - 7:00 PM TH 15 Enroll Now
3451 MUS 150B : CONTEMPORARY BIG BAND II 101/30/2018 - 05/15/2018 6:00 PM - 9:10 PM T 19 Enroll Now
3454 MUS 152B : SML GROUP JAZZ ENS II 201/29/2018 - 05/16/2018 12:00 PM - 2:25 PM MW 20 Enroll Now
3341 MUS 166A : VOCAL JAZZ ENSEMBLE I 201/30/2018 - 05/17/2018 3:00 PM - 5:20 PM TTH 20 Enroll Now
1759 MUS 201 : ADVANCED MUSIC THEORY 301/22/2018 - 05/25/2018 10:30 AM - 11:45 AM MW 12 Enroll Now
1760 MUS 203 : ADVANCED MUSICIANSHIP 101/22/2018 - 05/25/2018 9:00 AM - 10:15 AM M 12 Enroll Now
1761 MUS 228 : ADVANCED PIANO 101/22/2018 - 05/25/2018 10:30 AM - 11:45 AM TTH 15 Enroll Now
3452 MUS 250A : CONTEMPORARY BIG BAND III 101/30/2018 - 05/15/2018 6:00 PM - 9:10 PM T 25 Enroll Now
3453 MUS 250B : CONTEMPORARY BIG BAND IV 101/30/2018 - 05/15/2018 6:00 PM - 9:10 PM T 25 Enroll Now
3455 MUS 252A : SML GROUP JAZZ ENS III 201/29/2018 - 05/16/2018 12:00 PM - 2:25 PM MW 25 Enroll Now
3456 MUS 252B : SML GROUP JAZZ ENS IV 201/29/2018 - 05/16/2018 12:00 PM - 2:25 PM MW 25 Enroll Now
1828 NURS 151 : BODY SYSTEMS SURVEY 301/22/2018 - 05/25/2018 9:00 AM - 11:50 AM TH 3 Enroll Now
1829 NURS 151 : BODY SYSTEMS SURVEY 301/22/2018 - 05/25/2018 1:00 PM - 3:50 PM TH 17 Enroll Now
2959 NURS 163 : HOME HEALTH AIDE 203/28/2018 - 05/16/2018 7:00 AM - 10:00 AM W 9 Enroll Now
2911 NURS 181 : MEDICAL SURGICAL NURSING I 403/26/2018 - 05/19/2018 10:00 AM - 12:50 PM T 1 Enroll Now
1832 NURS 182 : MATERNAL-CHILD NURSING 501/22/2018 - 05/25/2018 10:00 AM - 12:00 PM M 1 Enroll Now
1834 NURS 183 : MEDICAL SURGICAL NURSING II 401/22/2018 - 05/25/2018 9:00 AM - 10:50 AM W 1 Enroll Now
3033 NURS 274 : LIC VOC NURSING V 801/22/2018 - 05/25/2018 4:00 PM - 8:20 PM T 4 Enroll Now
1838 NURS 282 : PSYCH-MENTAL HEALTH NURSING 401/22/2018 - 05/25/2018 11:00 AM - 12:50 PM TH 1 Enroll Now
1840 NURS 283 : MEDICAL SURGICAL NURSING IV 601/22/2018 - 05/25/2018 12:30 PM - 4:30 PM ARR 2 Enroll Now
1842 NURS 284 : CONTEMPORARY NURSING PRACTICE 201/22/2018 - 05/25/2018 1:00 AM - 1:00 AM ONL 2 Enroll Now
1843 NURS 284L : PRECEPTORSHIP LAB 201/22/2018 - 05/25/2018 11:00 AM - 11:50 AM W 2 Enroll Now
1301 NUTR 105 : HUMAN PERF & SPORTS NUTRITION 301/22/2018 - 05/25/2018 9:00 AM - 10:15 AM TTH 10 Enroll Now
3036 NUTR 105 : HUMAN PERF & SPORTS NUTRITION 302/08/2018 - 05/24/2018 4:30 PM - 5:50 PM TH 31 Enroll Now
1105 OCEA 101 : INTRO TO OCEANOGRAPHY 301/22/2018 - 05/25/2018 7:30 AM - 8:45 AM TTH 9 Enroll Now
1109 OCEA 101 : INTRO TO OCEANOGRAPHY 301/22/2018 - 05/25/2018 10:30 AM - 11:45 AM TTH 12 Enroll Now
1110 OCEA 101 : INTRO TO OCEANOGRAPHY 301/22/2018 - 05/25/2018 8:55 AM - 11:55 AM F 10 Enroll Now
3091 OCEA 101 : INTRO TO OCEANOGRAPHY 301/22/2018 - 05/25/2018 10:30 AM - 11:45 AM MW 2 Enroll Now
1393 PHAR 100 : BASIC PHARMACOLOGY 301/22/2018 - 05/25/2018 6:30 PM - 9:20 PM T 12 Enroll Now
1394 PHAR 100 : BASIC PHARMACOLOGY 301/22/2018 - 05/25/2018 6:30 PM - 9:20 PM W 23 Enroll Now
2114 PHAR 201 : PHARMACOLOGY REVIEW & UPDATE 201/22/2018 - 05/25/2018 1:00 PM - 3:00 PM M 14 Enroll Now
1303 PHIL 100 : INFORMAL LOGIC & CRITICAL THNK 301/22/2018 - 05/25/2018 1:30 PM - 2:45 PM MW 9 Enroll Now
2736 PHIL 100 : INFORMAL LOGIC & CRITICAL THNK 302/06/2018 - 05/22/2018 6:00 PM - 9:25 PM T 2 Enroll Now
1306 PHIL 101 : INTRODUCTION TO PHILOSOPHY 301/22/2018 - 05/25/2018 9:00 AM - 12:00 PM F 10 Enroll Now
1309 PHIL 102 : CONTEMPORARY MORAL PROBLEMS 301/22/2018 - 05/25/2018 9:00 AM - 10:15 AM MW 12 Enroll Now
2309 PHIL 221 : PHILOSOPHY OF RELIGION 301/22/2018 - 05/25/2018 10:30 AM - 11:45 AM MW 2 Enroll Now
3096 PHSN 106 : ENERGY, MOTION, AND MATTER 301/22/2018 - 05/25/2018 9:00 AM - 10:15 AM TTH 4 Enroll Now
3090 PHSN 108 : INTRO TO CLIMATE CHANGE 301/22/2018 - 05/25/2018 9:00 AM - 10:15 AM TTH 17 Enroll Now
1540 PHYS 112 : INTRO PHYSICS II 401/22/2018 - 05/25/2018 6:00 PM - 7:15 PM TTH 5 Enroll Now
1542 PHYS 112 : INTRO PHYSICS II 401/22/2018 - 05/25/2018 6:00 PM - 7:15 PM MW 18 Enroll Now
1853 PHYS 152 : PRINCIPLES OF PHYSICS II 401/22/2018 - 05/25/2018 3:00 PM - 4:15 PM TTH 4 Enroll Now
1554 PHYS 253 : PRINCIPLES OF PHYSICS III 401/22/2018 - 05/25/2018 3:00 PM - 4:15 PM TTH 1 Enroll Now
1152 PLSC 101 : INTRO TO POLITICAL SCIENCE 301/22/2018 - 05/25/2018 9:00 AM - 10:15 AM MW 7 Enroll Now
1160 PLSC 102 : AMERICAN INST & HISTORY 401/22/2018 - 05/25/2018 6:00 PM - 9:50 PM TH 1 Enroll Now
1165 PLSC 103 : COMPARATIVE GOVERNMENT 301/22/2018 - 05/25/2018 7:30 AM - 8:45 AM TTH 15 Enroll Now
1696 PSYC 100 : PSYCH OF PERSONAL GROWTH 301/22/2018 - 05/25/2018 7:30 AM - 8:45 AM MW 13 Enroll Now
1702 PSYC 100 : PSYCH OF PERSONAL GROWTH 301/22/2018 - 05/25/2018 6:00 PM - 8:50 PM W 2 Enroll Now
1703 PSYC 100 : PSYCH OF PERSONAL GROWTH 301/22/2018 - 05/25/2018 10:30 AM - 11:45 AM TTH 4 Enroll Now
1704 PSYC 100 : PSYCH OF PERSONAL GROWTH 301/22/2018 - 05/25/2018 6:00 PM - 9:00 PM M 15 Enroll Now
1716 PSYC 101 : GENERAL PSYCHOLOGY 301/22/2018 - 05/25/2018 4:30 PM - 5:45 PM MW 8 Enroll Now
2759 PSYC 101 : GENERAL PSYCHOLOGY 302/09/2018 - 05/25/2018 1:00 PM - 4:50 PM F 13 Enroll Now
1719 PSYC 103 : SOCIAL PSYCHOLOGY 301/22/2018 - 05/25/2018 9:00 AM - 10:15 AM MW 15 Enroll Now
1720 PSYC 103 : SOCIAL PSYCHOLOGY 301/22/2018 - 05/25/2018 6:30 PM - 9:30 PM M 29 Enroll Now
1721 PSYC 103 : SOCIAL PSYCHOLOGY 301/22/2018 - 05/25/2018 12:00 PM - 1:15 PM TTH 15 Enroll Now
1722 PSYC 104 : STATISTICS FOR BEHAVIORAL SCI 401/22/2018 - 05/25/2018 12:00 PM - 1:15 PM MW 7 Enroll Now
1723 PSYC 104 : STATISTICS FOR BEHAVIORAL SCI 401/22/2018 - 05/25/2018 10:30 AM - 11:45 AM MW 9 Enroll Now
1724 PSYC 104 : STATISTICS FOR BEHAVIORAL SCI 401/22/2018 - 05/25/2018 9:00 AM - 10:50 AM TTH 12 Enroll Now
1725 PSYC 104 : STATISTICS FOR BEHAVIORAL SCI 401/22/2018 - 05/25/2018 1:30 PM - 3:20 PM TTH 8 Enroll Now
1726 PSYC 104 : STATISTICS FOR BEHAVIORAL SCI 401/22/2018 - 05/25/2018 9:00 AM - 10:50 AM MW 5 Enroll Now
1727 PSYC 104 : STATISTICS FOR BEHAVIORAL SCI 401/22/2018 - 05/25/2018 9:00 AM - 10:50 AM TTH 6 Enroll Now
1728 PSYC 104 : STATISTICS FOR BEHAVIORAL SCI 401/22/2018 - 05/25/2018 11:00 AM - 12:50 PM TTH 6 Enroll Now
1729 PSYC 104 : STATISTICS FOR BEHAVIORAL SCI 401/22/2018 - 05/25/2018 5:30 PM - 9:30 PM M 10 Enroll Now
1730 PSYC 104 : STATISTICS FOR BEHAVIORAL SCI 401/22/2018 - 05/25/2018 1:30 PM - 3:20 PM MW 14 Enroll Now
1731 PSYC 104 : STATISTICS FOR BEHAVIORAL SCI 401/22/2018 - 05/25/2018 1:00 AM - 1:00 AM ONL 6 Enroll Now
1732 PSYC 104 : STATISTICS FOR BEHAVIORAL SCI 401/22/2018 - 05/25/2018 1:00 AM - 1:00 AM ONL 14 Enroll Now
2107 PSYC 104 : STATISTICS FOR BEHAVIORAL SCI 401/22/2018 - 05/25/2018 1:30 PM - 2:45 PM M 9 Enroll Now
2150 PSYC 104 : STATISTICS FOR BEHAVIORAL SCI 401/22/2018 - 05/25/2018 11:00 AM - 12:50 PM TTH 11 Enroll Now
2354 PSYC 104 : STATISTICS FOR BEHAVIORAL SCI 401/22/2018 - 05/25/2018 5:00 PM - 8:50 PM W 17 Enroll Now
2355 PSYC 104 : STATISTICS FOR BEHAVIORAL SCI 401/22/2018 - 05/25/2018 9:00 AM - 1:00 PM F 7 Enroll Now
2857 PSYC 104 : STATISTICS FOR BEHAVIORAL SCI 401/22/2018 - 05/25/2018 1:00 AM - 1:00 AM ONL 5 Enroll Now
1734 PSYC 115 : HUMAN SEXUALITY 301/22/2018 - 05/25/2018 4:30 PM - 5:45 PM TTH 2 Enroll Now
1737 PSYC 115 : HUMAN SEXUALITY 301/22/2018 - 05/25/2018 1:30 PM - 2:45 PM MW 18 Enroll Now
2311 PSYC 121 : HUMAN DEVELOPMENT 301/22/2018 - 05/25/2018 6:00 PM - 8:50 PM W 21 Enroll Now
1740 PSYC 145 : PSYCH/SOC OF FAMILY 301/22/2018 - 05/25/2018 12:00 PM - 1:15 PM MW 20 Enroll Now
2361 PSYC 205 : RESEARCH METHODS IN PSYCHOLOGY 301/22/2018 - 05/25/2018 1:30 PM - 2:30 PM MW 3 Enroll Now
1373 READ 100 : CRITICAL READING AND THINKING 301/22/2018 - 05/25/2018 6:00 PM - 8:50 PM T 5 Enroll Now
1374 READ 100 : CRITICAL READING AND THINKING 301/22/2018 - 05/25/2018 9:00 AM - 10:15 AM MW 14 Enroll Now
1592 SOC 101 : INTRO TO SOCIOLOGY 301/22/2018 - 05/25/2018 9:00 AM - 10:15 AM TTH 1 Enroll Now
1593 SOC 101 : INTRO TO SOCIOLOGY 301/22/2018 - 05/25/2018 9:00 AM - 12:00 PM F 10 Enroll Now
1596 SOC 101 : INTRO TO SOCIOLOGY 301/22/2018 - 05/25/2018 12:00 PM - 1:15 PM TTH 12 Enroll Now
1597 SOC 101 : INTRO TO SOCIOLOGY 301/22/2018 - 05/25/2018 1:30 PM - 2:45 PM MW 4 Enroll Now
1600 SOC 101 : INTRO TO SOCIOLOGY 301/22/2018 - 05/25/2018 3:00 PM - 4:15 PM TTH 21 Enroll Now
1864 SOC 101 : INTRO TO SOCIOLOGY 301/22/2018 - 05/25/2018 12:00 PM - 1:15 PM MW 9 Enroll Now
1605 SOC 102 : CONTEMPORARY SOCIAL PROBLEMS 301/22/2018 - 05/25/2018 6:30 PM - 9:20 PM TH 10 Enroll Now
1606 SOC 102 : CONTEMPORARY SOCIAL PROBLEMS 301/22/2018 - 05/25/2018 12:00 PM - 1:15 PM MW 12 Enroll Now
1607 SOC 103 : SOCIAL PSYCHOLOGY 301/22/2018 - 05/25/2018 9:00 AM - 10:15 AM MW 25 Enroll Now
1608 SOC 103 : SOCIAL PSYCHOLOGY 301/22/2018 - 05/25/2018 6:30 PM - 9:30 PM M 27 Enroll Now
1609 SOC 103 : SOCIAL PSYCHOLOGY 301/22/2018 - 05/25/2018 12:00 PM - 1:15 PM TTH 25 Enroll Now
1610 SOC 104 : STATS FOR BEHAVIORAL SCIENCE 401/22/2018 - 05/25/2018 12:00 PM - 1:15 PM MW 17 Enroll Now
1611 SOC 104 : STATS FOR BEHAVIORAL SCIENCE 401/22/2018 - 05/25/2018 10:30 AM - 11:45 AM MW 15 Enroll Now
1612 SOC 104 : STATS FOR BEHAVIORAL SCIENCE 401/22/2018 - 05/25/2018 9:00 AM - 10:50 AM TTH 12 Enroll Now
1613 SOC 104 : STATS FOR BEHAVIORAL SCIENCE 401/22/2018 - 05/25/2018 1:30 PM - 3:20 PM TTH 16 Enroll Now
1614 SOC 104 : STATS FOR BEHAVIORAL SCIENCE 401/22/2018 - 05/25/2018 9:00 AM - 10:50 AM MW 19 Enroll Now
1615 SOC 104 : STATS FOR BEHAVIORAL SCIENCE 401/22/2018 - 05/25/2018 9:00 AM - 10:50 AM TTH 18 Enroll Now
1616 SOC 104 : STATS FOR BEHAVIORAL SCIENCE 401/22/2018 - 05/25/2018 11:00 AM - 12:50 PM TTH 18 Enroll Now
1617 SOC 104 : STATS FOR BEHAVIORAL SCIENCE 401/22/2018 - 05/25/2018 5:30 PM - 9:30 PM M 14 Enroll Now
1618 SOC 104 : STATS FOR BEHAVIORAL SCIENCE 401/22/2018 - 05/25/2018 1:30 PM - 3:20 PM MW 7 Enroll Now
1619 SOC 104 : STATS FOR BEHAVIORAL SCIENCE 401/22/2018 - 05/25/2018 1:00 AM - 1:00 AM ONL 29 Enroll Now
1620 SOC 104 : STATS FOR BEHAVIORAL SCIENCE 401/22/2018 - 05/25/2018 1:00 AM - 1:00 AM ONL 21 Enroll Now
2108 SOC 104 : STATS FOR BEHAVIORAL SCIENCE 401/22/2018 - 05/25/2018 1:30 PM - 2:45 PM M 15 Enroll Now
2244 SOC 104 : STATS FOR BEHAVIORAL SCIENCE 401/22/2018 - 05/25/2018 11:00 AM - 12:50 PM TTH 13 Enroll Now
2356 SOC 104 : STATS FOR BEHAVIORAL SCIENCE 401/22/2018 - 05/25/2018 5:00 PM - 8:50 PM W 21 Enroll Now
2357 SOC 104 : STATS FOR BEHAVIORAL SCIENCE 401/22/2018 - 05/25/2018 9:00 AM - 1:00 PM F 17 Enroll Now
2858 SOC 104 : STATS FOR BEHAVIORAL SCIENCE 401/22/2018 - 05/25/2018 1:00 AM - 1:00 AM ONL 30 Enroll Now
2401 SOC 120 : WOMEN'S STUDIES 301/22/2018 - 05/25/2018 12:00 PM - 1:15 PM TTH 3 Enroll Now
1622 SOC 145 : PSYCH/SOC OF FAMILY 301/22/2018 - 05/25/2018 12:00 PM - 1:15 PM MW 20 Enroll Now
1623 SOC 205 : RESEARCH METHODS SOCIOLOGY 301/22/2018 - 05/25/2018 10:30 AM - 11:30 AM MW 6 Enroll Now
2135 SOC 240 : INTRODUCTION TO BLACK STUDIES 301/22/2018 - 05/25/2018 12:00 PM - 1:15 PM TTH 21 Enroll Now
1167 SPAN 101 : ELEM SPANISH 1ST SEMESTER 401/22/2018 - 05/25/2018 7:30 AM - 8:25 AM MTWT14 Enroll Now
1185 SPAN 101 : ELEM SPANISH 1ST SEMESTER 401/22/2018 - 05/25/2018 9:30 AM - 11:15 AM MW 8 Enroll Now
1187 SPAN 101 : ELEM SPANISH 1ST SEMESTER 401/22/2018 - 05/25/2018 12:00 PM - 1:45 PM TTH 7 Enroll Now
1189 SPAN 101 : ELEM SPANISH 1ST SEMESTER 401/22/2018 - 05/25/2018 9:30 AM - 11:15 AM TTH 18 Enroll Now
1191 SPAN 101 : ELEM SPANISH 1ST SEMESTER 401/22/2018 - 05/25/2018 5:30 PM - 7:15 PM MW 3 Enroll Now
3561 SPAN 101 : ELEM SPANISH 1ST SEMESTER 401/29/2018 - 05/19/2018 1:00 AM - 1:00 AM ONL 20 Enroll Now
1201 SPAN 102 : ELEM SPANISH 2ND SEMESTER 401/22/2018 - 05/25/2018 9:00 AM - 11:50 AM F 1 Enroll Now
1203 SPAN 102 : ELEM SPANISH 2ND SEMESTER 401/22/2018 - 05/25/2018 6:30 PM - 8:15 PM MW 1 Enroll Now
1207 SPAN 102 : ELEM SPANISH 2ND SEMESTER 401/22/2018 - 05/25/2018 12:00 PM - 1:45 PM MW 2 Enroll Now
3067 SPAN 160 : SPANISH-HEALTH CARE PRVDRS I 201/22/2018 - 03/14/2018 3:00 PM - 5:05 PM MW 17 Enroll Now
2746 SPAN 161 : SPANISH-HEALTH CARE PRVDRS II 203/26/2018 - 05/16/2018 3:00 PM - 5:05 PM MW 32 Enroll Now
2409 SPAN 201 : INTER SPANISH 3RD SEMESTER 401/22/2018 - 05/25/2018 6:30 PM - 8:15 PM MW 8 Enroll Now
2413 SPAN 205 : HISPANIC FILM, LIT, & COMP 301/22/2018 - 05/25/2018 2:30 PM - 3:45 PM MW 17 Enroll Now